<?xml version='1.0' encoding='UTF-8'?><gpx version="1.1" creator="JPX - https://github.com/jenetics/jpx" xmlns="http://www.topografix.com/GPX/1/1"><trk><trkseg><trkpt lat="46.1687505" lon="10.2744071"><ele>882.9999999999999</ele><time>2026-04-12T15:00:10.857Z</time></trkpt><trkpt lat="46.1687908" lon="10.2744827"><ele>883.0</ele><time>2026-04-12T15:00:12.857Z</time></trkpt><trkpt lat="46.168812" lon="10.2745893"><ele>883.0</ele><time>2026-04-12T15:00:14.831Z</time></trkpt><trkpt lat="46.1688365" lon="10.2747207"><ele>883.0</ele><time>2026-04-12T15:00:16.857Z</time></trkpt><trkpt lat="46.1688066" lon="10.2748393"><ele>882.9999999999999</ele><time>2026-04-12T15:00:17.857Z</time></trkpt><trkpt lat="46.1687929" lon="10.2749352"><ele>883.0</ele><time>2026-04-12T15:00:18.857Z</time></trkpt><trkpt lat="46.1688043" lon="10.2750784"><ele>883.6666666666666</ele><time>2026-04-12T15:00:20.856Z</time></trkpt><trkpt lat="46.168814" lon="10.2752149"><ele>884.3333333333333</ele><time>2026-04-12T15:00:22.857Z</time></trkpt><trkpt lat="46.1688257" lon="10.27535"><ele>885.0</ele><time>2026-04-12T15:00:24.856Z</time></trkpt><trkpt lat="46.1688356" lon="10.2754793"><ele>885.6666666666667</ele><time>2026-04-12T15:00:26.858Z</time></trkpt><trkpt lat="46.1688513" lon="10.275595"><ele>886.3333333333334</ele><time>2026-04-12T15:00:28.857Z</time></trkpt><trkpt lat="46.1688616" lon="10.2757069"><ele>887.0</ele><time>2026-04-12T15:00:30.858Z</time></trkpt><trkpt lat="46.168874" lon="10.2758186"><ele>887.8333333333334</ele><time>2026-04-12T15:00:32.857Z</time></trkpt><trkpt lat="46.1688851" lon="10.2759285"><ele>888.6666666666667</ele><time>2026-04-12T15:00:34.856Z</time></trkpt><trkpt lat="46.1688993" lon="10.2760309"><ele>889.5</ele><time>2026-04-12T15:00:36.857Z</time></trkpt><trkpt lat="46.1689138" lon="10.2761238"><ele>890.3333333333333</ele><time>2026-04-12T15:00:38.858Z</time></trkpt><trkpt lat="46.1689378" lon="10.2762481"><ele>891.1666666666666</ele><time>2026-04-12T15:00:41.856Z</time></trkpt><trkpt lat="46.1689469" lon="10.2763574"><ele>892.0</ele><time>2026-04-12T15:00:44.857Z</time></trkpt><trkpt lat="46.1689611" lon="10.2764599"><ele>892.6666666666666</ele><time>2026-04-12T15:00:47.857Z</time></trkpt><trkpt lat="46.1689738" lon="10.2765744"><ele>893.3333333333333</ele><time>2026-04-12T15:00:50.856Z</time></trkpt><trkpt lat="46.1689817" lon="10.2766867"><ele>894.0</ele><time>2026-04-12T15:00:53.857Z</time></trkpt><trkpt lat="46.1689905" lon="10.2768054"><ele>894.6666666666667</ele><time>2026-04-12T15:00:56.857Z</time></trkpt><trkpt lat="46.169009" lon="10.2769261"><ele>895.3333333333334</ele><time>2026-04-12T15:00:59.858Z</time></trkpt><trkpt lat="46.1690233" lon="10.2770454"><ele>896.0</ele><time>2026-04-12T15:01:02.858Z</time></trkpt><trkpt lat="46.1690368" lon="10.2771714"><ele>894.3333333333334</ele><time>2026-04-12T15:01:05.857Z</time></trkpt><trkpt lat="46.1690408" lon="10.2772648"><ele>892.6666666666667</ele><time>2026-04-12T15:01:07.857Z</time></trkpt><trkpt lat="46.1690496" lon="10.2773744"><ele>891.0</ele><time>2026-04-12T15:01:09.856Z</time></trkpt><trkpt lat="46.1690591" lon="10.2774953"><ele>889.3333333333333</ele><time>2026-04-12T15:01:11.858Z</time></trkpt><trkpt lat="46.1690658" lon="10.277623"><ele>887.6666666666666</ele><time>2026-04-12T15:01:13.856Z</time></trkpt><trkpt lat="46.1690804" lon="10.2777584"><ele>886.0</ele><time>2026-04-12T15:01:15.856Z</time></trkpt><trkpt lat="46.1690926" lon="10.2779111"><ele>885.9999999999999</ele><time>2026-04-12T15:01:17.856Z</time></trkpt><trkpt lat="46.1691082" lon="10.2780776"><ele>886.0</ele><time>2026-04-12T15:01:19.857Z</time></trkpt><trkpt lat="46.1691153" lon="10.2781703"><ele>886.0</ele><time>2026-04-12T15:01:20.857Z</time></trkpt><trkpt lat="46.169124" lon="10.2782667"><ele>886.0</ele><time>2026-04-12T15:01:21.857Z</time></trkpt><trkpt lat="46.1691326" lon="10.278367"><ele>885.9999999999999</ele><time>2026-04-12T15:01:22.856Z</time></trkpt><trkpt lat="46.1691413" lon="10.2784729"><ele>886.0</ele><time>2026-04-12T15:01:23.857Z</time></trkpt><trkpt lat="46.1691503" lon="10.2785834"><ele>885.6666666666666</ele><time>2026-04-12T15:01:24.857Z</time></trkpt><trkpt lat="46.1691586" lon="10.2786954"><ele>885.3333333333333</ele><time>2026-04-12T15:01:25.858Z</time></trkpt><trkpt lat="46.1691681" lon="10.2788111"><ele>885.0</ele><time>2026-04-12T15:01:26.856Z</time></trkpt><trkpt lat="46.1691764" lon="10.2789284"><ele>884.6666666666667</ele><time>2026-04-12T15:01:27.856Z</time></trkpt><trkpt lat="46.169179" lon="10.279051"><ele>884.3333333333334</ele><time>2026-04-12T15:01:28.857Z</time></trkpt><trkpt lat="46.1691883" lon="10.2791723"><ele>884.0</ele><time>2026-04-12T15:01:29.857Z</time></trkpt><trkpt lat="46.1691975" lon="10.2792956"><ele>883.0</ele><time>2026-04-12T15:01:30.858Z</time></trkpt><trkpt lat="46.1692047" lon="10.2794252"><ele>882.0000000000001</ele><time>2026-04-12T15:01:31.857Z</time></trkpt><trkpt lat="46.1692135" lon="10.2795573"><ele>881.0000000000001</ele><time>2026-04-12T15:01:32.856Z</time></trkpt><trkpt lat="46.1692244" lon="10.2796917"><ele>880.0</ele><time>2026-04-12T15:01:33.856Z</time></trkpt><trkpt lat="46.1692391" lon="10.2798279"><ele>879.0</ele><time>2026-04-12T15:01:34.857Z</time></trkpt><trkpt lat="46.1692583" lon="10.2799621"><ele>878.8000000000001</ele><time>2026-04-12T15:01:35.857Z</time></trkpt><trkpt lat="46.1692771" lon="10.2800968"><ele>878.6000000000001</ele><time>2026-04-12T15:01:36.856Z</time></trkpt><trkpt lat="46.1692963" lon="10.280234"><ele>878.4</ele><time>2026-04-12T15:01:37.857Z</time></trkpt><trkpt lat="46.1693154" lon="10.280372"><ele>878.2</ele><time>2026-04-12T15:01:38.857Z</time></trkpt><trkpt lat="46.1693349" lon="10.2805098"><ele>878.0</ele><time>2026-04-12T15:01:39.856Z</time></trkpt><trkpt lat="46.1693573" lon="10.280644"><ele>879.0</ele><time>2026-04-12T15:01:40.857Z</time></trkpt><trkpt lat="46.1693735" lon="10.2807773"><ele>880.0</ele><time>2026-04-12T15:01:41.856Z</time></trkpt><trkpt lat="46.1693879" lon="10.2809134"><ele>881.0</ele><time>2026-04-12T15:01:42.857Z</time></trkpt><trkpt lat="46.1694053" lon="10.2810497"><ele>882.0</ele><time>2026-04-12T15:01:43.858Z</time></trkpt><trkpt lat="46.1694209" lon="10.2811814"><ele>883.0</ele><time>2026-04-12T15:01:44.857Z</time></trkpt><trkpt lat="46.1694399" lon="10.2813141"><ele>883.8333333333333</ele><time>2026-04-12T15:01:45.857Z</time></trkpt><trkpt lat="46.169456" lon="10.281443"><ele>884.6666666666666</ele><time>2026-04-12T15:01:46.857Z</time></trkpt><trkpt lat="46.1694737" lon="10.2815722"><ele>885.5</ele><time>2026-04-12T15:01:47.857Z</time></trkpt><trkpt lat="46.169487" lon="10.281699"><ele>886.3333333333333</ele><time>2026-04-12T15:01:48.857Z</time></trkpt><trkpt lat="46.1695004" lon="10.2818242"><ele>887.1666666666666</ele><time>2026-04-12T15:01:49.858Z</time></trkpt><trkpt lat="46.1695201" lon="10.2819524"><ele>888.0</ele><time>2026-04-12T15:01:50.858Z</time></trkpt><trkpt lat="46.1695349" lon="10.282077"><ele>888.0</ele><time>2026-04-12T15:01:51.856Z</time></trkpt><trkpt lat="46.1695376" lon="10.2822086"><ele>888.0</ele><time>2026-04-12T15:01:52.857Z</time></trkpt><trkpt lat="46.1695411" lon="10.2823445"><ele>888.0</ele><time>2026-04-12T15:01:53.856Z</time></trkpt><trkpt lat="46.1695385" lon="10.2824869"><ele>888.0</ele><time>2026-04-12T15:01:54.857Z</time></trkpt><trkpt lat="46.1695345" lon="10.2826274"><ele>888.0</ele><time>2026-04-12T15:01:55.857Z</time></trkpt><trkpt lat="46.1695324" lon="10.2827718"><ele>888.8</ele><time>2026-04-12T15:01:56.857Z</time></trkpt><trkpt lat="46.1695347" lon="10.282919"><ele>889.5999999999999</ele><time>2026-04-12T15:01:57.856Z</time></trkpt><trkpt lat="46.1695393" lon="10.283075"><ele>890.4000000000001</ele><time>2026-04-12T15:01:58.856Z</time></trkpt><trkpt lat="46.169549" lon="10.2832315"><ele>891.2</ele><time>2026-04-12T15:01:59.857Z</time></trkpt><trkpt lat="46.1695685" lon="10.2833861"><ele>892.0</ele><time>2026-04-12T15:02:00.856Z</time></trkpt><trkpt lat="46.1695997" lon="10.2835422"><ele>893.25</ele><time>2026-04-12T15:02:01.857Z</time></trkpt><trkpt lat="46.1696321" lon="10.2837019"><ele>894.5</ele><time>2026-04-12T15:02:02.857Z</time></trkpt><trkpt lat="46.169673" lon="10.2838647"><ele>895.75</ele><time>2026-04-12T15:02:03.857Z</time></trkpt><trkpt lat="46.1697245" lon="10.2840244"><ele>897.0</ele><time>2026-04-12T15:02:04.858Z</time></trkpt><trkpt lat="46.1697759" lon="10.284186"><ele>899.0</ele><time>2026-04-12T15:02:05.856Z</time></trkpt><trkpt lat="46.1698288" lon="10.2843533"><ele>901.0</ele><time>2026-04-12T15:02:06.858Z</time></trkpt><trkpt lat="46.1698847" lon="10.2845225"><ele>903.0</ele><time>2026-04-12T15:02:07.858Z</time></trkpt><trkpt lat="46.1699406" lon="10.2846958"><ele>905.0</ele><time>2026-04-12T15:02:08.857Z</time></trkpt><trkpt lat="46.1700046" lon="10.2848694"><ele>892.5</ele><time>2026-04-12T15:02:09.857Z</time></trkpt><trkpt lat="46.1700655" lon="10.2850453"><ele>880.0</ele><time>2026-04-12T15:02:10.856Z</time></trkpt><trkpt lat="46.1701243" lon="10.2852263"><ele>867.5</ele><time>2026-04-12T15:02:11.857Z</time></trkpt><trkpt lat="46.1701628" lon="10.2854202"><ele>855.0</ele><time>2026-04-12T15:02:12.857Z</time></trkpt><trkpt lat="46.1701682" lon="10.2856233"><ele>854.5</ele><time>2026-04-12T15:02:13.856Z</time></trkpt><trkpt lat="46.170142" lon="10.285826"><ele>854.0</ele><time>2026-04-12T15:02:14.857Z</time></trkpt><trkpt lat="46.1700865" lon="10.2860166"><ele>853.5</ele><time>2026-04-12T15:02:15.856Z</time></trkpt><trkpt lat="46.1700255" lon="10.2862044"><ele>853.0</ele><time>2026-04-12T15:02:16.856Z</time></trkpt><trkpt lat="46.1699675" lon="10.2863986"><ele>849.25</ele><time>2026-04-12T15:02:17.856Z</time></trkpt><trkpt lat="46.1699029" lon="10.2865885"><ele>845.5</ele><time>2026-04-12T15:02:18.857Z</time></trkpt><trkpt lat="46.1698402" lon="10.2867791"><ele>841.75</ele><time>2026-04-12T15:02:19.857Z</time></trkpt><trkpt lat="46.1697729" lon="10.286969"><ele>838.0</ele><time>2026-04-12T15:02:20.858Z</time></trkpt><trkpt lat="46.1697051" lon="10.2871577"><ele>845.5</ele><time>2026-04-12T15:02:21.858Z</time></trkpt><trkpt lat="46.1696547" lon="10.2873456"><ele>853.0</ele><time>2026-04-12T15:02:22.858Z</time></trkpt><trkpt lat="46.1696386" lon="10.2875437"><ele>860.5</ele><time>2026-04-12T15:02:23.857Z</time></trkpt><trkpt lat="46.1696459" lon="10.2877251"><ele>868.0</ele><time>2026-04-12T15:02:24.858Z</time></trkpt><trkpt lat="46.169688" lon="10.2878995"><ele>868.0</ele><time>2026-04-12T15:02:25.857Z</time></trkpt><trkpt lat="46.1697368" lon="10.2880569"><ele>868.0</ele><time>2026-04-12T15:02:26.858Z</time></trkpt><trkpt lat="46.1697769" lon="10.2882115"><ele>868.0</ele><time>2026-04-12T15:02:27.858Z</time></trkpt><trkpt lat="46.1698102" lon="10.2883624"><ele>868.0</ele><time>2026-04-12T15:02:28.858Z</time></trkpt><trkpt lat="46.1698306" lon="10.288512"><ele>868.0</ele><time>2026-04-12T15:02:29.858Z</time></trkpt><trkpt lat="46.1698307" lon="10.2886326"><ele>868.1666666666666</ele><time>2026-04-12T15:02:30.858Z</time></trkpt><trkpt lat="46.1698283" lon="10.2887534"><ele>868.3333333333333</ele><time>2026-04-12T15:02:31.858Z</time></trkpt><trkpt lat="46.1698262" lon="10.2888722"><ele>868.5</ele><time>2026-04-12T15:02:32.857Z</time></trkpt><trkpt lat="46.1698223" lon="10.2889836"><ele>868.6666666666667</ele><time>2026-04-12T15:02:33.858Z</time></trkpt><trkpt lat="46.1698187" lon="10.2890987"><ele>868.8333333333334</ele><time>2026-04-12T15:02:34.858Z</time></trkpt><trkpt lat="46.1698151" lon="10.2891994"><ele>869.0</ele><time>2026-04-12T15:02:35.857Z</time></trkpt><trkpt lat="46.1698377" lon="10.2892887"><ele>868.4000000000001</ele><time>2026-04-12T15:02:36.857Z</time></trkpt><trkpt lat="46.1698543" lon="10.289393"><ele>867.8000000000001</ele><time>2026-04-12T15:02:37.858Z</time></trkpt><trkpt lat="46.1698792" lon="10.2895447"><ele>867.1999999999999</ele><time>2026-04-12T15:02:39.857Z</time></trkpt><trkpt lat="46.1699009" lon="10.2897072"><ele>866.5999999999999</ele><time>2026-04-12T15:02:41.857Z</time></trkpt><trkpt lat="46.1699295" lon="10.2898565"><ele>866.0</ele><time>2026-04-12T15:02:43.858Z</time></trkpt><trkpt lat="46.169936" lon="10.2899985"><ele>864.0</ele><time>2026-04-12T15:02:45.857Z</time></trkpt><trkpt lat="46.1699352" lon="10.2901389"><ele>861.9999999999999</ele><time>2026-04-12T15:02:47.857Z</time></trkpt><trkpt lat="46.1699116" lon="10.2902759"><ele>859.9999999999999</ele><time>2026-04-12T15:02:49.857Z</time></trkpt><trkpt lat="46.1698839" lon="10.2904049"><ele>858.0</ele><time>2026-04-12T15:02:51.857Z</time></trkpt><trkpt lat="46.1698558" lon="10.2905352"><ele>856.0</ele><time>2026-04-12T15:02:53.857Z</time></trkpt><trkpt lat="46.1698061" lon="10.2906434"><ele>853.3333333333333</ele><time>2026-04-12T15:02:55.859Z</time></trkpt><trkpt lat="46.1697421" lon="10.2907345"><ele>850.6666666666666</ele><time>2026-04-12T15:02:57.859Z</time></trkpt><trkpt lat="46.1696631" lon="10.2907372"><ele>848.0</ele><time>2026-04-12T15:02:59.858Z</time></trkpt><trkpt lat="46.1695923" lon="10.2907545"><ele>845.3333333333333</ele><time>2026-04-12T15:03:01.858Z</time></trkpt><trkpt lat="46.1695045" lon="10.2907471"><ele>842.6666666666666</ele><time>2026-04-12T15:03:03.858Z</time></trkpt><trkpt lat="46.1693986" lon="10.2908056"><ele>840.0</ele><time>2026-04-12T15:03:05.858Z</time></trkpt><trkpt lat="46.169364" lon="10.2908922"><ele>840.0</ele><time>2026-04-12T15:03:06.858Z</time></trkpt><trkpt lat="46.1693643" lon="10.2910041"><ele>840.0</ele><time>2026-04-12T15:03:07.858Z</time></trkpt><trkpt lat="46.1693918" lon="10.2911096"><ele>840.0</ele><time>2026-04-12T15:03:08.857Z</time></trkpt><trkpt lat="46.1694375" lon="10.2912089"><ele>840.0</ele><time>2026-04-12T15:03:09.858Z</time></trkpt><trkpt lat="46.1695029" lon="10.2912995"><ele>840.0</ele><time>2026-04-12T15:03:10.857Z</time></trkpt><trkpt lat="46.1695729" lon="10.2913628"><ele>840.0</ele><time>2026-04-12T15:03:11.859Z</time></trkpt><trkpt lat="46.1696514" lon="10.2914234"><ele>838.2</ele><time>2026-04-12T15:03:12.858Z</time></trkpt><trkpt lat="46.1697255" lon="10.2914998"><ele>836.4</ele><time>2026-04-12T15:03:13.858Z</time></trkpt><trkpt lat="46.169803" lon="10.2915736"><ele>834.5999999999999</ele><time>2026-04-12T15:03:14.858Z</time></trkpt><trkpt lat="46.1698814" lon="10.2916585"><ele>832.8</ele><time>2026-04-12T15:03:15.858Z</time></trkpt><trkpt lat="46.1699526" lon="10.2917362"><ele>831.0</ele><time>2026-04-12T15:03:16.857Z</time></trkpt><trkpt lat="46.1700108" lon="10.2918277"><ele>829.1999999999999</ele><time>2026-04-12T15:03:17.858Z</time></trkpt><trkpt lat="46.1700442" lon="10.291951"><ele>827.4</ele><time>2026-04-12T15:03:18.857Z</time></trkpt><trkpt lat="46.1700199" lon="10.2920758"><ele>825.6</ele><time>2026-04-12T15:03:19.857Z</time></trkpt><trkpt lat="46.1700094" lon="10.2922051"><ele>823.8</ele><time>2026-04-12T15:03:20.857Z</time></trkpt><trkpt lat="46.170005" lon="10.2923382"><ele>822.0</ele><time>2026-04-12T15:03:21.858Z</time></trkpt><trkpt lat="46.170004" lon="10.2924765"><ele>822.0</ele><time>2026-04-12T15:03:22.857Z</time></trkpt><trkpt lat="46.1700093" lon="10.2926227"><ele>822.0</ele><time>2026-04-12T15:03:23.858Z</time></trkpt><trkpt lat="46.1700219" lon="10.2927721"><ele>822.0</ele><time>2026-04-12T15:03:24.858Z</time></trkpt><trkpt lat="46.1700448" lon="10.2929288"><ele>822.0</ele><time>2026-04-12T15:03:25.858Z</time></trkpt><trkpt lat="46.1700751" lon="10.2930927"><ele>822.0</ele><time>2026-04-12T15:03:26.858Z</time></trkpt><trkpt lat="46.170097" lon="10.2932563"><ele>821.4000000000001</ele><time>2026-04-12T15:03:27.857Z</time></trkpt><trkpt lat="46.1701141" lon="10.2934119"><ele>820.8000000000001</ele><time>2026-04-12T15:03:28.858Z</time></trkpt><trkpt lat="46.170121" lon="10.2935482"><ele>820.2</ele><time>2026-04-12T15:03:29.858Z</time></trkpt><trkpt lat="46.170102" lon="10.2936833"><ele>819.6</ele><time>2026-04-12T15:03:30.859Z</time></trkpt><trkpt lat="46.1700415" lon="10.2938164"><ele>819.0</ele><time>2026-04-12T15:03:31.859Z</time></trkpt><trkpt lat="46.169955" lon="10.2939288"><ele>812.75</ele><time>2026-04-12T15:03:32.858Z</time></trkpt><trkpt lat="46.1699061" lon="10.2940781"><ele>806.5</ele><time>2026-04-12T15:03:33.858Z</time></trkpt><trkpt lat="46.1698844" lon="10.2942494"><ele>800.25</ele><time>2026-04-12T15:03:34.859Z</time></trkpt><trkpt lat="46.169891" lon="10.2944208"><ele>794.0</ele><time>2026-04-12T15:03:35.858Z</time></trkpt><trkpt lat="46.1699194" lon="10.294592"><ele>790.75</ele><time>2026-04-12T15:03:36.858Z</time></trkpt><trkpt lat="46.1699525" lon="10.294765"><ele>787.5</ele><time>2026-04-12T15:03:37.858Z</time></trkpt><trkpt lat="46.1699773" lon="10.2949444"><ele>784.25</ele><time>2026-04-12T15:03:38.858Z</time></trkpt><trkpt lat="46.1699954" lon="10.2951181"><ele>781.0</ele><time>2026-04-12T15:03:39.858Z</time></trkpt><trkpt lat="46.1699843" lon="10.2952875"><ele>781.0</ele><time>2026-04-12T15:03:40.858Z</time></trkpt><trkpt lat="46.1699362" lon="10.2954492"><ele>781.0</ele><time>2026-04-12T15:03:41.857Z</time></trkpt><trkpt lat="46.1698653" lon="10.2955948"><ele>781.0</ele><time>2026-04-12T15:03:42.858Z</time></trkpt><trkpt lat="46.1697946" lon="10.2957459"><ele>781.0</ele><time>2026-04-12T15:03:43.857Z</time></trkpt><trkpt lat="46.1697167" lon="10.2958977"><ele>785.25</ele><time>2026-04-12T15:03:44.858Z</time></trkpt><trkpt lat="46.1696522" lon="10.2960601"><ele>789.5</ele><time>2026-04-12T15:03:45.857Z</time></trkpt><trkpt lat="46.1696107" lon="10.296233"><ele>793.75</ele><time>2026-04-12T15:03:46.859Z</time></trkpt><trkpt lat="46.1695826" lon="10.2964122"><ele>798.0</ele><time>2026-04-12T15:03:47.859Z</time></trkpt><trkpt lat="46.1695625" lon="10.2966005"><ele>798.0</ele><time>2026-04-12T15:03:48.858Z</time></trkpt><trkpt lat="46.1695739" lon="10.2967962"><ele>798.0</ele><time>2026-04-12T15:03:49.859Z</time></trkpt><trkpt lat="46.1696077" lon="10.2969929"><ele>798.0</ele><time>2026-04-12T15:03:50.859Z</time></trkpt><trkpt lat="46.1696453" lon="10.2971905"><ele>798.0</ele><time>2026-04-12T15:03:51.859Z</time></trkpt><trkpt lat="46.1696873" lon="10.2973956"><ele>795.75</ele><time>2026-04-12T15:03:52.857Z</time></trkpt><trkpt lat="46.169734" lon="10.2975928"><ele>793.5</ele><time>2026-04-12T15:03:53.858Z</time></trkpt><trkpt lat="46.16977" lon="10.2977813"><ele>791.25</ele><time>2026-04-12T15:03:54.858Z</time></trkpt><trkpt lat="46.1697973" lon="10.2979573"><ele>789.0</ele><time>2026-04-12T15:03:55.857Z</time></trkpt><trkpt lat="46.1698181" lon="10.2981177"><ele>786.6</ele><time>2026-04-12T15:03:56.857Z</time></trkpt><trkpt lat="46.1698346" lon="10.2982693"><ele>784.2</ele><time>2026-04-12T15:03:57.858Z</time></trkpt><trkpt lat="46.1698436" lon="10.2984154"><ele>781.8000000000001</ele><time>2026-04-12T15:03:58.859Z</time></trkpt><trkpt lat="46.1698458" lon="10.2985522"><ele>779.4000000000001</ele><time>2026-04-12T15:03:59.858Z</time></trkpt><trkpt lat="46.1698511" lon="10.2986815"><ele>777.0</ele><time>2026-04-12T15:04:00.858Z</time></trkpt><trkpt lat="46.1698589" lon="10.2988047"><ele>771.3333333333334</ele><time>2026-04-12T15:04:01.858Z</time></trkpt><trkpt lat="46.169873" lon="10.2989099"><ele>765.6666666666666</ele><time>2026-04-12T15:04:02.858Z</time></trkpt><trkpt lat="46.1698894" lon="10.2990052"><ele>760.0</ele><time>2026-04-12T15:04:03.859Z</time></trkpt><trkpt lat="46.1699274" lon="10.2991543"><ele>754.3333333333333</ele><time>2026-04-12T15:04:05.857Z</time></trkpt><trkpt lat="46.1699372" lon="10.2992506"><ele>748.6666666666666</ele><time>2026-04-12T15:04:11.859Z</time></trkpt><trkpt lat="46.169908" lon="10.2993426"><ele>743.0</ele><time>2026-04-12T15:04:15.858Z</time></trkpt><trkpt lat="46.1698837" lon="10.299438"><ele>747.1428571428572</ele><time>2026-04-12T15:04:19.859Z</time></trkpt><trkpt lat="46.1698469" lon="10.2995193"><ele>751.2857142857142</ele><time>2026-04-12T15:04:24.857Z</time></trkpt><trkpt lat="46.1698088" lon="10.2996025"><ele>755.4285714285714</ele><time>2026-04-12T15:04:30.858Z</time></trkpt><trkpt lat="46.1697695" lon="10.2996759"><ele>759.5714285714287</ele><time>2026-04-12T15:04:36.857Z</time></trkpt><trkpt lat="46.1697117" lon="10.299734"><ele>763.7142857142858</ele><time>2026-04-12T15:04:43.859Z</time></trkpt><trkpt lat="46.1696392" lon="10.2997204"><ele>767.8571428571429</ele><time>2026-04-12T15:04:50.858Z</time></trkpt><trkpt lat="46.1695841" lon="10.2996756"><ele>772.0</ele><time>2026-04-12T15:04:56.858Z</time></trkpt><trkpt lat="46.1695328" lon="10.2996197"><ele>772.0000000000001</ele><time>2026-04-12T15:05:02.857Z</time></trkpt><trkpt lat="46.169479" lon="10.2995524"><ele>772.0</ele><time>2026-04-12T15:05:09.858Z</time></trkpt><trkpt lat="46.1694473" lon="10.2994675"><ele>772.0</ele><time>2026-04-12T15:05:19.858Z</time></trkpt><trkpt lat="46.1693995" lon="10.2994073"><ele>772.0</ele><time>2026-04-12T15:05:25.857Z</time></trkpt><trkpt lat="46.1693453" lon="10.2993398"><ele>772.0</ele><time>2026-04-12T15:05:36.858Z</time></trkpt><trkpt lat="46.1692856" lon="10.2992819"><ele>772.0000000000001</ele><time>2026-04-12T15:06:29.858Z</time></trkpt><trkpt lat="46.1692151" lon="10.2992304"><ele>772.0</ele><time>2026-04-12T15:06:36.859Z</time></trkpt><trkpt lat="46.1691471" lon="10.2991819"><ele>772.0000000000001</ele><time>2026-04-12T15:06:41.858Z</time></trkpt><trkpt lat="46.1690876" lon="10.2991386"><ele>772.0</ele><time>2026-04-12T15:06:45.857Z</time></trkpt><trkpt lat="46.169045" lon="10.2990682"><ele>772.0</ele><time>2026-04-12T15:06:50.81Z</time></trkpt><trkpt lat="46.1689776" lon="10.2990134"><ele>772.0</ele><time>2026-04-12T15:06:55.858Z</time></trkpt><trkpt lat="46.1689202" lon="10.2989459"><ele>772.0</ele><time>2026-04-12T15:07:00.858Z</time></trkpt><trkpt lat="46.1688996" lon="10.2988591"><ele>772.0000000000001</ele><time>2026-04-12T15:07:06.817Z</time></trkpt><trkpt lat="46.1688503" lon="10.2987905"><ele>772.0</ele><time>2026-04-12T15:07:13.858Z</time></trkpt><trkpt lat="46.168814" lon="10.298865"><ele>779.2857142857143</ele><time>2026-04-12T15:07:18.858Z</time></trkpt><trkpt lat="46.1688081" lon="10.2989581"><ele>786.5714285714286</ele><time>2026-04-12T15:07:26.859Z</time></trkpt><trkpt lat="46.1688138" lon="10.2990537"><ele>793.8571428571429</ele><time>2026-04-12T15:07:33.858Z</time></trkpt><trkpt lat="46.1688395" lon="10.2991414"><ele>801.1428571428571</ele><time>2026-04-12T15:07:39.86Z</time></trkpt><trkpt lat="46.1688301" lon="10.2992324"><ele>808.4285714285714</ele><time>2026-04-12T15:07:47.859Z</time></trkpt><trkpt lat="46.168848" lon="10.299327"><ele>815.7142857142858</ele><time>2026-04-12T15:07:53.859Z</time></trkpt><trkpt lat="46.1688616" lon="10.2994195"><ele>823.0</ele><time>2026-04-12T15:07:58.858Z</time></trkpt><trkpt lat="46.1688249" lon="10.2995044"><ele>823.0</ele><time>2026-04-12T15:08:04.859Z</time></trkpt><trkpt lat="46.1687817" lon="10.2995773"><ele>823.0</ele><time>2026-04-12T15:08:09.858Z</time></trkpt><trkpt lat="46.1687189" lon="10.299569"><ele>823.0</ele><time>2026-04-12T15:08:16.859Z</time></trkpt><trkpt lat="46.1687029" lon="10.2994721"><ele>823.0</ele><time>2026-04-12T15:08:24.691Z</time></trkpt><trkpt lat="46.1686391" lon="10.2995069"><ele>823.0</ele><time>2026-04-12T15:08:29.859Z</time></trkpt><trkpt lat="46.1685908" lon="10.2995808"><ele>823.0</ele><time>2026-04-12T15:08:37.858Z</time></trkpt><trkpt lat="46.1685153" lon="10.2995816"><ele>823.0</ele><time>2026-04-12T15:08:43.859Z</time></trkpt><trkpt lat="46.1684486" lon="10.2996283"><ele>823.0</ele><time>2026-04-12T15:08:49.859Z</time></trkpt><trkpt lat="46.1683903" lon="10.2996705"><ele>823.0</ele><time>2026-04-12T15:08:56.859Z</time></trkpt><trkpt lat="46.1683303" lon="10.2996357"><ele>823.0</ele><time>2026-04-12T15:09:04.859Z</time></trkpt><trkpt lat="46.1682789" lon="10.2995747"><ele>823.0</ele><time>2026-04-12T15:09:13.858Z</time></trkpt><trkpt lat="46.1682111" lon="10.2995254"><ele>823.0</ele><time>2026-04-12T15:09:21.859Z</time></trkpt><trkpt lat="46.1681586" lon="10.2994691"><ele>823.0</ele><time>2026-04-12T15:09:28.86Z</time></trkpt><trkpt lat="46.1681168" lon="10.2993932"><ele>823.0</ele><time>2026-04-12T15:09:37.86Z</time></trkpt><trkpt lat="46.1680618" lon="10.299334"><ele>827.0</ele><time>2026-04-12T15:09:46.859Z</time></trkpt><trkpt lat="46.1679998" lon="10.2992838"><ele>831.0</ele><time>2026-04-12T15:09:53.858Z</time></trkpt><trkpt lat="46.167951" lon="10.2992079"><ele>835.0</ele><time>2026-04-12T15:10:00.859Z</time></trkpt><trkpt lat="46.1679114" lon="10.2991332"><ele>839.0</ele><time>2026-04-12T15:10:09.859Z</time></trkpt><trkpt lat="46.1678772" lon="10.2990337"><ele>843.0</ele><time>2026-04-12T15:10:16.86Z</time></trkpt><trkpt lat="46.1678474" lon="10.2989535"><ele>847.0</ele><time>2026-04-12T15:10:20.859Z</time></trkpt><trkpt lat="46.1678229" lon="10.2988601"><ele>851.0</ele><time>2026-04-12T15:10:25.859Z</time></trkpt><trkpt lat="46.1678141" lon="10.2987638"><ele>851.8571428571429</ele><time>2026-04-12T15:10:34.86Z</time></trkpt><trkpt lat="46.1678109" lon="10.2986719"><ele>852.7142857142858</ele><time>2026-04-12T15:10:38.859Z</time></trkpt><trkpt lat="46.1678154" lon="10.298569"><ele>853.5714285714286</ele><time>2026-04-12T15:10:43.859Z</time></trkpt><trkpt lat="46.1678142" lon="10.298474"><ele>854.4285714285714</ele><time>2026-04-12T15:10:48.859Z</time></trkpt><trkpt lat="46.16781" lon="10.2983754"><ele>855.2857142857142</ele><time>2026-04-12T15:10:53.858Z</time></trkpt><trkpt lat="46.1678025" lon="10.2982844"><ele>856.1428571428571</ele><time>2026-04-12T15:10:59.86Z</time></trkpt><trkpt lat="46.1677768" lon="10.2981975"><ele>857.0</ele><time>2026-04-12T15:11:03.861Z</time></trkpt><trkpt lat="46.1677306" lon="10.2981356"><ele>857.0</ele><time>2026-04-12T15:11:08.86Z</time></trkpt><trkpt lat="46.1676876" lon="10.2980541"><ele>857.0</ele><time>2026-04-12T15:11:14.859Z</time></trkpt><trkpt lat="46.1676569" lon="10.2979705"><ele>857.0</ele><time>2026-04-12T15:11:19.859Z</time></trkpt><trkpt lat="46.1676279" lon="10.2978799"><ele>857.0</ele><time>2026-04-12T15:11:24.861Z</time></trkpt><trkpt lat="46.1675826" lon="10.2977866"><ele>857.0</ele><time>2026-04-12T15:11:28.86Z</time></trkpt><trkpt lat="46.1675521" lon="10.2977008"><ele>857.0</ele><time>2026-04-12T15:11:35.859Z</time></trkpt><trkpt lat="46.1674978" lon="10.297634"><ele>857.0</ele><time>2026-04-12T15:11:41.86Z</time></trkpt><trkpt lat="46.1674452" lon="10.2975734"><ele>857.0</ele><time>2026-04-12T15:11:47.859Z</time></trkpt><trkpt lat="46.1673852" lon="10.2975116"><ele>857.0</ele><time>2026-04-12T15:11:53.861Z</time></trkpt><trkpt lat="46.1673335" lon="10.2974559"><ele>857.0</ele><time>2026-04-12T15:11:58.861Z</time></trkpt><trkpt lat="46.1672895" lon="10.2973856"><ele>857.0</ele><time>2026-04-12T15:12:03.86Z</time></trkpt><trkpt lat="46.1672753" lon="10.2972964"><ele>857.0</ele><time>2026-04-12T15:12:08.859Z</time></trkpt><trkpt lat="46.1673055" lon="10.2972142"><ele>857.0</ele><time>2026-04-12T15:12:14.86Z</time></trkpt><trkpt lat="46.1673541" lon="10.2971495"><ele>857.0</ele><time>2026-04-12T15:12:21.859Z</time></trkpt><trkpt lat="46.1673429" lon="10.2970524"><ele>862.1428571428571</ele><time>2026-04-12T15:12:27.86Z</time></trkpt><trkpt lat="46.1673204" lon="10.2969552"><ele>867.2857142857142</ele><time>2026-04-12T15:12:34.861Z</time></trkpt><trkpt lat="46.1673051" lon="10.2968595"><ele>872.4285714285714</ele><time>2026-04-12T15:12:40.861Z</time></trkpt><trkpt lat="46.1672896" lon="10.2967631"><ele>877.5714285714286</ele><time>2026-04-12T15:12:47.86Z</time></trkpt><trkpt lat="46.1672631" lon="10.2966753"><ele>882.7142857142858</ele><time>2026-04-12T15:12:54.861Z</time></trkpt><trkpt lat="46.1671961" lon="10.2966988"><ele>887.8571428571429</ele><time>2026-04-12T15:13:01.86Z</time></trkpt><trkpt lat="46.1671562" lon="10.2967763"><ele>893.0</ele><time>2026-04-12T15:13:07.861Z</time></trkpt><trkpt lat="46.1671095" lon="10.2968443"><ele>893.0</ele><time>2026-04-12T15:13:13.86Z</time></trkpt><trkpt lat="46.1670647" lon="10.2969192"><ele>893.0</ele><time>2026-04-12T15:13:20.86Z</time></trkpt><trkpt lat="46.167019" lon="10.2968538"><ele>893.0</ele><time>2026-04-12T15:13:27.859Z</time></trkpt><trkpt lat="46.1670037" lon="10.2967536"><ele>893.0</ele><time>2026-04-12T15:13:34.86Z</time></trkpt><trkpt lat="46.1669354" lon="10.2967528"><ele>893.0</ele><time>2026-04-12T15:13:44.86Z</time></trkpt><trkpt lat="46.1668783" lon="10.2968119"><ele>893.0</ele><time>2026-04-12T15:13:51.859Z</time></trkpt><trkpt lat="46.1668099" lon="10.2968324"><ele>893.0</ele><time>2026-04-12T15:13:57.86Z</time></trkpt><trkpt lat="46.1667419" lon="10.2968716"><ele>893.0</ele><time>2026-04-12T15:14:03.859Z</time></trkpt><trkpt lat="46.1666692" lon="10.2969349"><ele>893.0</ele><time>2026-04-12T15:14:10.86Z</time></trkpt><trkpt lat="46.1666371" lon="10.2970171"><ele>893.0</ele><time>2026-04-12T15:14:15.86Z</time></trkpt><trkpt lat="46.1666267" lon="10.2971212"><ele>893.0</ele><time>2026-04-12T15:14:21.86Z</time></trkpt><trkpt lat="46.1666198" lon="10.2972197"><ele>893.0</ele><time>2026-04-12T15:14:26.86Z</time></trkpt><trkpt lat="46.1665899" lon="10.2973078"><ele>893.0</ele><time>2026-04-12T15:14:30.86Z</time></trkpt><trkpt lat="46.1665653" lon="10.2973977"><ele>893.0</ele><time>2026-04-12T15:14:34.86Z</time></trkpt><trkpt lat="46.1665519" lon="10.2975051"><ele>891.7142857142858</ele><time>2026-04-12T15:14:39.86Z</time></trkpt><trkpt lat="46.1665713" lon="10.2975988"><ele>890.4285714285714</ele><time>2026-04-12T15:14:45.86Z</time></trkpt><trkpt lat="46.1665101" lon="10.2975617"><ele>889.1428571428571</ele><time>2026-04-12T15:14:55.86Z</time></trkpt><trkpt lat="46.1664629" lon="10.2974977"><ele>887.8571428571429</ele><time>2026-04-12T15:15:02.86Z</time></trkpt><trkpt lat="46.1664182" lon="10.297427"><ele>886.5714285714286</ele><time>2026-04-12T15:15:08.861Z</time></trkpt><trkpt lat="46.1663687" lon="10.2973531"><ele>885.2857142857143</ele><time>2026-04-12T15:15:15.861Z</time></trkpt><trkpt lat="46.166328" lon="10.2972762"><ele>884.0</ele><time>2026-04-12T15:15:23.861Z</time></trkpt><trkpt lat="46.1662937" lon="10.2971988"><ele>888.0</ele><time>2026-04-12T15:15:29.862Z</time></trkpt><trkpt lat="46.1662555" lon="10.2971077"><ele>892.0</ele><time>2026-04-12T15:15:35.86Z</time></trkpt><trkpt lat="46.1662139" lon="10.2970379"><ele>896.0</ele><time>2026-04-12T15:15:42.86Z</time></trkpt><trkpt lat="46.1661474" lon="10.2970207"><ele>900.0</ele><time>2026-04-12T15:15:48.861Z</time></trkpt><trkpt lat="46.1660883" lon="10.2970798"><ele>903.9999999999999</ele><time>2026-04-12T15:15:54.862Z</time></trkpt><trkpt lat="46.1660766" lon="10.2971751"><ele>908.0</ele><time>2026-04-12T15:16:02.861Z</time></trkpt><trkpt lat="46.1660708" lon="10.2972801"><ele>912.0</ele><time>2026-04-12T15:16:08.86Z</time></trkpt><trkpt lat="46.1660299" lon="10.2973571"><ele>912.0</ele><time>2026-04-12T15:16:13.862Z</time></trkpt><trkpt lat="46.1659787" lon="10.297427"><ele>911.9999999999999</ele><time>2026-04-12T15:16:22.86Z</time></trkpt><trkpt lat="46.1659159" lon="10.2974577"><ele>912.0</ele><time>2026-04-12T15:16:27.861Z</time></trkpt><trkpt lat="46.1658543" lon="10.2974323"><ele>912.0</ele><time>2026-04-12T15:16:31.862Z</time></trkpt><trkpt lat="46.1658149" lon="10.2973494"><ele>911.9999999999999</ele><time>2026-04-12T15:16:38.862Z</time></trkpt><trkpt lat="46.1657834" lon="10.2972683"><ele>912.0</ele><time>2026-04-12T15:16:46.862Z</time></trkpt><trkpt lat="46.1657551" lon="10.2971792"><ele>912.0</ele><time>2026-04-12T15:16:53.861Z</time></trkpt><trkpt lat="46.1657011" lon="10.297128"><ele>919.4285714285713</ele><time>2026-04-12T15:16:58.861Z</time></trkpt><trkpt lat="46.1656569" lon="10.2970588"><ele>926.8571428571428</ele><time>2026-04-12T15:17:03.861Z</time></trkpt><trkpt lat="46.1656054" lon="10.296982"><ele>934.2857142857142</ele><time>2026-04-12T15:17:09.862Z</time></trkpt><trkpt lat="46.1655676" lon="10.2969033"><ele>941.7142857142858</ele><time>2026-04-12T15:17:16.862Z</time></trkpt><trkpt lat="46.1655563" lon="10.2968123"><ele>949.1428571428572</ele><time>2026-04-12T15:17:22.862Z</time></trkpt><trkpt lat="46.1655813" lon="10.2967216"><ele>956.5714285714287</ele><time>2026-04-12T15:17:28.861Z</time></trkpt><trkpt lat="46.1656115" lon="10.2966353"><ele>964.0</ele><time>2026-04-12T15:17:33.861Z</time></trkpt><trkpt lat="46.1656419" lon="10.2965542"><ele>964.0</ele><time>2026-04-12T15:17:39.86Z</time></trkpt><trkpt lat="46.1656713" lon="10.296468"><ele>964.0000000000001</ele><time>2026-04-12T15:17:46.861Z</time></trkpt><trkpt lat="46.1656858" lon="10.2963749"><ele>964.0</ele><time>2026-04-12T15:17:51.862Z</time></trkpt><trkpt lat="46.1656652" lon="10.296286"><ele>964.0</ele><time>2026-04-12T15:17:58.861Z</time></trkpt><trkpt lat="46.1656371" lon="10.2961915"><ele>964.0000000000001</ele><time>2026-04-12T15:18:07.86Z</time></trkpt><trkpt lat="46.1656217" lon="10.2961026"><ele>964.0</ele><time>2026-04-12T15:18:13.86Z</time></trkpt><trkpt lat="46.1656278" lon="10.2959954"><ele>964.0</ele><time>2026-04-12T15:18:20.861Z</time></trkpt><trkpt lat="46.1656324" lon="10.2958917"><ele>963.8571428571429</ele><time>2026-04-12T15:18:27.794Z</time></trkpt><trkpt lat="46.1656631" lon="10.2958109"><ele>963.7142857142858</ele><time>2026-04-12T15:18:34.861Z</time></trkpt><trkpt lat="46.1656976" lon="10.2957247"><ele>963.5714285714287</ele><time>2026-04-12T15:18:45.862Z</time></trkpt><trkpt lat="46.1657352" lon="10.295646"><ele>963.4285714285716</ele><time>2026-04-12T15:18:49.861Z</time></trkpt><trkpt lat="46.1657653" lon="10.2955647"><ele>963.2857142857143</ele><time>2026-04-12T15:18:55.836Z</time></trkpt><trkpt lat="46.1657555" lon="10.2954563"><ele>963.1428571428573</ele><time>2026-04-12T15:19:01.861Z</time></trkpt><trkpt lat="46.1657418" lon="10.295357"><ele>963.0000000000001</ele><time>2026-04-12T15:19:09.861Z</time></trkpt><trkpt lat="46.1657206" lon="10.2952529"><ele>968.0000000000001</ele><time>2026-04-12T15:19:18.86Z</time></trkpt><trkpt lat="46.1656919" lon="10.2951634"><ele>973.0</ele><time>2026-04-12T15:19:24.86Z</time></trkpt><trkpt lat="46.1656374" lon="10.2951158"><ele>978.0000000000001</ele><time>2026-04-12T15:19:31.861Z</time></trkpt><trkpt lat="46.1655845" lon="10.2950603"><ele>983.0000000000001</ele><time>2026-04-12T15:19:37.861Z</time></trkpt><trkpt lat="46.1655259" lon="10.2950263"><ele>988.0</ele><time>2026-04-12T15:19:43.861Z</time></trkpt><trkpt lat="46.1654557" lon="10.2950384"><ele>993.0000000000001</ele><time>2026-04-12T15:19:50.835Z</time></trkpt><trkpt lat="46.1653878" lon="10.2950735"><ele>998.0000000000001</ele><time>2026-04-12T15:19:57.861Z</time></trkpt><trkpt lat="46.1653312" lon="10.295131"><ele>998.0000000000001</ele><time>2026-04-12T15:20:05.861Z</time></trkpt><trkpt lat="46.1652931" lon="10.2952164"><ele>998.0</ele><time>2026-04-12T15:20:13.861Z</time></trkpt><trkpt lat="46.1652302" lon="10.2951636"><ele>998.0000000000001</ele><time>2026-04-12T15:20:20.861Z</time></trkpt><trkpt lat="46.1652295" lon="10.2950723"><ele>998.0000000000001</ele><time>2026-04-12T15:20:26.861Z</time></trkpt><trkpt lat="46.1651833" lon="10.2950061"><ele>998.0</ele><time>2026-04-12T15:20:34.86Z</time></trkpt><trkpt lat="46.1651538" lon="10.294917"><ele>998.0000000000001</ele><time>2026-04-12T15:20:41.862Z</time></trkpt><trkpt lat="46.1651446" lon="10.2948178"><ele>998.0000000000001</ele><time>2026-04-12T15:20:49.861Z</time></trkpt><trkpt lat="46.1651652" lon="10.2947206"><ele>1000.4285714285716</ele><time>2026-04-12T15:20:53.861Z</time></trkpt><trkpt lat="46.1651479" lon="10.2946165"><ele>1002.8571428571429</ele><time>2026-04-12T15:20:59.861Z</time></trkpt><trkpt lat="46.1651447" lon="10.2945143"><ele>1005.2857142857143</ele><time>2026-04-12T15:21:06.861Z</time></trkpt><trkpt lat="46.1651196" lon="10.2944167"><ele>1007.7142857142858</ele><time>2026-04-12T15:21:13.862Z</time></trkpt><trkpt lat="46.1650983" lon="10.2943253"><ele>1010.1428571428571</ele><time>2026-04-12T15:21:20.861Z</time></trkpt><trkpt lat="46.1650841" lon="10.2942362"><ele>1012.5714285714286</ele><time>2026-04-12T15:21:27.862Z</time></trkpt><trkpt lat="46.1650882" lon="10.2941323"><ele>1015.0</ele><time>2026-04-12T15:21:35.862Z</time></trkpt><trkpt lat="46.1650489" lon="10.294057"><ele>1015.0</ele><time>2026-04-12T15:21:44.862Z</time></trkpt><trkpt lat="46.1650484" lon="10.293963"><ele>1015.0</ele><time>2026-04-12T15:21:51.861Z</time></trkpt><trkpt lat="46.1650694" lon="10.2938706"><ele>1015.0</ele><time>2026-04-12T15:22:07.862Z</time></trkpt><trkpt lat="46.1650166" lon="10.2938031"><ele>1015.0</ele><time>2026-04-12T15:22:23.862Z</time></trkpt><trkpt lat="46.1649534" lon="10.2938093"><ele>1015.0</ele><time>2026-04-12T15:22:29.863Z</time></trkpt><trkpt lat="46.1648891" lon="10.2938047"><ele>1015.0</ele><time>2026-04-12T15:22:35.861Z</time></trkpt><trkpt lat="46.1648229" lon="10.2937926"><ele>1015.0</ele><time>2026-04-12T15:22:41.861Z</time></trkpt><trkpt lat="46.164757" lon="10.2937784"><ele>1019.2857142857142</ele><time>2026-04-12T15:22:48.863Z</time></trkpt><trkpt lat="46.1646919" lon="10.2937663"><ele>1023.5714285714286</ele><time>2026-04-12T15:22:54.863Z</time></trkpt><trkpt lat="46.1646208" lon="10.2937552"><ele>1027.857142857143</ele><time>2026-04-12T15:23:00.861Z</time></trkpt><trkpt lat="46.1645562" lon="10.2937268"><ele>1032.142857142857</ele><time>2026-04-12T15:23:06.87Z</time></trkpt><trkpt lat="46.1644797" lon="10.2936813"><ele>1036.4285714285713</ele><time>2026-04-12T15:24:21.863Z</time></trkpt><trkpt lat="46.1644167" lon="10.2936677"><ele>1040.7142857142858</ele><time>2026-04-12T15:24:57.862Z</time></trkpt><trkpt lat="46.1643519" lon="10.293654"><ele>1045.0</ele><time>2026-04-12T15:25:03.863Z</time></trkpt><trkpt lat="46.1642779" lon="10.293643"><ele>1045.0</ele><time>2026-04-12T15:25:09.862Z</time></trkpt><trkpt lat="46.1642152" lon="10.2936231"><ele>1045.0</ele><time>2026-04-12T15:25:14.861Z</time></trkpt><trkpt lat="46.164153" lon="10.2935983"><ele>1045.0</ele><time>2026-04-12T15:25:20.862Z</time></trkpt><trkpt lat="46.1640863" lon="10.2935795"><ele>1045.0</ele><time>2026-04-12T15:26:58.862Z</time></trkpt><trkpt lat="46.1640104" lon="10.2935679"><ele>1045.0</ele><time>2026-04-12T15:27:03.862Z</time></trkpt><trkpt lat="46.1639189" lon="10.2935851"><ele>1045.0</ele><time>2026-04-12T15:27:15.861Z</time></trkpt><trkpt lat="46.1638516" lon="10.2935631"><ele>1045.0</ele><time>2026-04-12T15:27:21.862Z</time></trkpt><trkpt lat="46.1637883" lon="10.2935234"><ele>1045.0</ele><time>2026-04-12T15:27:26.863Z</time></trkpt><trkpt lat="46.1637297" lon="10.2934867"><ele>1045.0</ele><time>2026-04-12T15:27:33.775Z</time></trkpt><trkpt lat="46.1637996" lon="10.2935121"><ele>1045.0</ele><time>2026-04-12T15:29:02.862Z</time></trkpt><trkpt lat="46.1638654" lon="10.2934839"><ele>1045.0</ele><time>2026-04-12T15:29:06.862Z</time></trkpt><trkpt lat="46.1639545" lon="10.2934863"><ele>1045.0</ele><time>2026-04-12T15:29:10.863Z</time></trkpt><trkpt lat="46.164029" lon="10.2935355"><ele>1045.0</ele><time>2026-04-12T15:29:14.863Z</time></trkpt><trkpt lat="46.1640917" lon="10.2935008"><ele>1045.0</ele><time>2026-04-12T15:29:19.862Z</time></trkpt><trkpt lat="46.1640783" lon="10.2934117"><ele>1045.0</ele><time>2026-04-12T15:33:05.862Z</time></trkpt><trkpt lat="46.1642174" lon="10.2932542"><ele>1045.0</ele><time>2026-04-12T15:33:30.863Z</time></trkpt><trkpt lat="46.164258" lon="10.2931707"><ele>1045.0</ele><time>2026-04-12T15:33:34.863Z</time></trkpt><trkpt lat="46.1642979" lon="10.293089"><ele>1045.0</ele><time>2026-04-12T15:33:52.862Z</time></trkpt><trkpt lat="46.1643484" lon="10.2930262"><ele>1045.0</ele><time>2026-04-12T15:34:15.864Z</time></trkpt><trkpt lat="46.1643668" lon="10.2929328"><ele>1046.857142857143</ele><time>2026-04-12T15:34:28.862Z</time></trkpt><trkpt lat="46.1643769" lon="10.2928379"><ele>1048.7142857142856</ele><time>2026-04-12T15:34:46.863Z</time></trkpt><trkpt lat="46.1643099" lon="10.2927354"><ele>1050.5714285714284</ele><time>2026-04-12T15:35:48.863Z</time></trkpt><trkpt lat="46.1642718" lon="10.2926554"><ele>1052.4285714285713</ele><time>2026-04-12T15:35:53.862Z</time></trkpt><trkpt lat="46.1642374" lon="10.2925786"><ele>1054.2857142857142</ele><time>2026-04-12T15:35:57.863Z</time></trkpt><trkpt lat="46.1641834" lon="10.2925121"><ele>1056.142857142857</ele><time>2026-04-12T15:36:02.862Z</time></trkpt><trkpt lat="46.1641559" lon="10.2924127"><ele>1058.0</ele><time>2026-04-12T15:36:07.862Z</time></trkpt><trkpt lat="46.1641331" lon="10.2922951"><ele>1060.0</ele><time>2026-04-12T15:36:12.864Z</time></trkpt><trkpt lat="46.164124" lon="10.2921955"><ele>1062.0</ele><time>2026-04-12T15:36:27.864Z</time></trkpt><trkpt lat="46.1641117" lon="10.2921036"><ele>1064.0</ele><time>2026-04-12T15:36:34.864Z</time></trkpt><trkpt lat="46.1641174" lon="10.2919988"><ele>1066.0</ele><time>2026-04-12T15:36:38.863Z</time></trkpt><trkpt lat="46.1641232" lon="10.2918927"><ele>1068.0</ele><time>2026-04-12T15:36:42.865Z</time></trkpt><trkpt lat="46.1641606" lon="10.2918"><ele>1070.0</ele><time>2026-04-12T15:36:47.865Z</time></trkpt><trkpt lat="46.164183" lon="10.2917052"><ele>1072.0</ele><time>2026-04-12T15:36:55.863Z</time></trkpt><trkpt lat="46.1642285" lon="10.2916299"><ele>1072.0</ele><time>2026-04-12T15:36:59.864Z</time></trkpt><trkpt lat="46.1642555" lon="10.2915342"><ele>1072.0</ele><time>2026-04-12T15:37:03.863Z</time></trkpt><trkpt lat="46.1642947" lon="10.2914566"><ele>1072.0</ele><time>2026-04-12T15:37:11.864Z</time></trkpt><trkpt lat="46.1643242" lon="10.291368"><ele>1072.0</ele><time>2026-04-12T15:37:17.863Z</time></trkpt><trkpt lat="46.1643068" lon="10.2912709"><ele>1072.0</ele><time>2026-04-12T15:37:23.863Z</time></trkpt><trkpt lat="46.1642407" lon="10.2912733"><ele>1072.0</ele><time>2026-04-12T15:37:44.864Z</time></trkpt><trkpt lat="46.1642548" lon="10.2911789"><ele>1072.0</ele><time>2026-04-12T15:37:49.864Z</time></trkpt><trkpt lat="46.1643176" lon="10.2911177"><ele>1074.7142857142858</ele><time>2026-04-12T15:37:53.865Z</time></trkpt><trkpt lat="46.1643567" lon="10.2910423"><ele>1077.4285714285713</ele><time>2026-04-12T15:37:57.865Z</time></trkpt><trkpt lat="46.1643807" lon="10.2909565"><ele>1080.142857142857</ele><time>2026-04-12T15:38:02.865Z</time></trkpt><trkpt lat="46.1644253" lon="10.2908651"><ele>1082.857142857143</ele><time>2026-04-12T15:38:08.864Z</time></trkpt><trkpt lat="46.1644755" lon="10.2907964"><ele>1085.5714285714287</ele><time>2026-04-12T15:38:12.863Z</time></trkpt><trkpt lat="46.1645277" lon="10.2907268"><ele>1088.2857142857142</ele><time>2026-04-12T15:38:18.864Z</time></trkpt><trkpt lat="46.1645824" lon="10.2906817"><ele>1091.0</ele><time>2026-04-12T15:38:23.864Z</time></trkpt><trkpt lat="46.1646087" lon="10.2905866"><ele>1093.142857142857</ele><time>2026-04-12T15:38:28.863Z</time></trkpt><trkpt lat="46.1646107" lon="10.2904883"><ele>1095.2857142857142</ele><time>2026-04-12T15:38:33.863Z</time></trkpt><trkpt lat="46.164605" lon="10.290392"><ele>1097.4285714285716</ele><time>2026-04-12T15:38:39.865Z</time></trkpt><trkpt lat="46.1646285" lon="10.290306"><ele>1099.5714285714284</ele><time>2026-04-12T15:38:44.863Z</time></trkpt><trkpt lat="46.1646709" lon="10.2902146"><ele>1101.7142857142858</ele><time>2026-04-12T15:38:50.863Z</time></trkpt><trkpt lat="46.1646693" lon="10.2901112"><ele>1103.857142857143</ele><time>2026-04-12T15:38:56.865Z</time></trkpt><trkpt lat="46.1646755" lon="10.2900075"><ele>1106.0</ele><time>2026-04-12T15:38:59.864Z</time></trkpt><trkpt lat="46.1647014" lon="10.2898893"><ele>1106.0</ele><time>2026-04-12T15:39:03.864Z</time></trkpt><trkpt lat="46.1647119" lon="10.2897943"><ele>1106.0</ele><time>2026-04-12T15:39:06.864Z</time></trkpt><trkpt lat="46.1647341" lon="10.2896822"><ele>1106.0</ele><time>2026-04-12T15:39:10.863Z</time></trkpt><trkpt lat="46.1647315" lon="10.2895702"><ele>1106.0</ele><time>2026-04-12T15:39:14.864Z</time></trkpt><trkpt lat="46.1647297" lon="10.2894647"><ele>1106.0</ele><time>2026-04-12T15:39:18.796Z</time></trkpt><trkpt lat="46.1647309" lon="10.2893702"><ele>1106.0</ele><time>2026-04-12T15:39:24.864Z</time></trkpt><trkpt lat="46.1647153" lon="10.2892672"><ele>1106.0</ele><time>2026-04-12T15:39:42.864Z</time></trkpt><trkpt lat="46.1646946" lon="10.2891638"><ele>1107.857142857143</ele><time>2026-04-12T15:39:47.864Z</time></trkpt><trkpt lat="46.1646536" lon="10.2890819"><ele>1109.7142857142858</ele><time>2026-04-12T15:39:53.774Z</time></trkpt><trkpt lat="46.1646248" lon="10.2889891"><ele>1111.5714285714284</ele><time>2026-04-12T15:40:00.863Z</time></trkpt><trkpt lat="46.1646035" lon="10.2888956"><ele>1113.4285714285716</ele><time>2026-04-12T15:40:06.791Z</time></trkpt><trkpt lat="46.1645583" lon="10.2888176"><ele>1115.2857142857142</ele><time>2026-04-12T15:40:13.859Z</time></trkpt><trkpt lat="46.1645091" lon="10.2887537"><ele>1117.142857142857</ele><time>2026-04-12T15:40:19.864Z</time></trkpt><trkpt lat="46.1644714" lon="10.2886789"><ele>1119.0</ele><time>2026-04-12T15:40:25.865Z</time></trkpt><trkpt lat="46.164431" lon="10.2886037"><ele>1119.0</ele><time>2026-04-12T15:40:32.863Z</time></trkpt><trkpt lat="46.1643699" lon="10.2885771"><ele>1119.0</ele><time>2026-04-12T15:40:38.864Z</time></trkpt><trkpt lat="46.1643535" lon="10.2886687"><ele>1119.0</ele><time>2026-04-12T15:40:43.864Z</time></trkpt><trkpt lat="46.164353" lon="10.2887703"><ele>1119.0</ele><time>2026-04-12T15:40:48.863Z</time></trkpt><trkpt lat="46.1643515" lon="10.2888758"><ele>1119.0</ele><time>2026-04-12T15:40:53.864Z</time></trkpt><trkpt lat="46.164348" lon="10.2889803"><ele>1119.0</ele><time>2026-04-12T15:40:58.863Z</time></trkpt><trkpt lat="46.164331" lon="10.2890731"><ele>1119.0</ele><time>2026-04-12T15:41:03.864Z</time></trkpt><trkpt lat="46.1643176" lon="10.2891718"><ele>1119.0</ele><time>2026-04-12T15:41:08.864Z</time></trkpt><trkpt lat="46.1642696" lon="10.2892402"><ele>1119.0</ele><time>2026-04-12T15:41:13.864Z</time></trkpt><trkpt lat="46.1642393" lon="10.2893353"><ele>1119.0</ele><time>2026-04-12T15:41:19.863Z</time></trkpt><trkpt lat="46.1642058" lon="10.2894345"><ele>1119.0</ele><time>2026-04-12T15:41:25.864Z</time></trkpt><trkpt lat="46.1641595" lon="10.2895099"><ele>1119.0</ele><time>2026-04-12T15:41:30.863Z</time></trkpt><trkpt lat="46.1641017" lon="10.2895484"><ele>1119.0</ele><time>2026-04-12T15:41:36.864Z</time></trkpt><trkpt lat="46.1640412" lon="10.2895881"><ele>1119.0</ele><time>2026-04-12T15:41:41.864Z</time></trkpt><trkpt lat="46.1639922" lon="10.289655"><ele>1123.0</ele><time>2026-04-12T15:41:45.864Z</time></trkpt><trkpt lat="46.1639293" lon="10.2897246"><ele>1127.0</ele><time>2026-04-12T15:41:50.864Z</time></trkpt><trkpt lat="46.1638595" lon="10.2897771"><ele>1131.0</ele><time>2026-04-12T15:41:53.864Z</time></trkpt><trkpt lat="46.1637855" lon="10.289833"><ele>1135.0</ele><time>2026-04-12T15:41:56.864Z</time></trkpt><trkpt lat="46.1637587" lon="10.2897404"><ele>1139.0</ele><time>2026-04-12T15:42:12.864Z</time></trkpt><trkpt lat="46.1637722" lon="10.2896362"><ele>1143.0</ele><time>2026-04-12T15:42:18.865Z</time></trkpt><trkpt lat="46.1637731" lon="10.2895322"><ele>1145.7142857142858</ele><time>2026-04-12T15:42:25.864Z</time></trkpt><trkpt lat="46.1637773" lon="10.289435"><ele>1148.4285714285713</ele><time>2026-04-12T15:42:31.863Z</time></trkpt><trkpt lat="46.1637989" lon="10.289342"><ele>1151.142857142857</ele><time>2026-04-12T15:42:37.864Z</time></trkpt><trkpt lat="46.1638151" lon="10.2892423"><ele>1153.857142857143</ele><time>2026-04-12T15:42:44.864Z</time></trkpt><trkpt lat="46.1638212" lon="10.2891365"><ele>1156.5714285714284</ele><time>2026-04-12T15:42:51.864Z</time></trkpt><trkpt lat="46.1638162" lon="10.2890388"><ele>1159.2857142857142</ele><time>2026-04-12T15:42:57.863Z</time></trkpt><trkpt lat="46.1638059" lon="10.2889394"><ele>1162.0</ele><time>2026-04-12T15:43:04.864Z</time></trkpt><trkpt lat="46.1637897" lon="10.288849"><ele>1164.2857142857142</ele><time>2026-04-12T15:43:08.864Z</time></trkpt><trkpt lat="46.1637956" lon="10.2887533"><ele>1166.5714285714284</ele><time>2026-04-12T15:43:14.863Z</time></trkpt><trkpt lat="46.1638074" lon="10.2886532"><ele>1168.857142857143</ele><time>2026-04-12T15:43:23.863Z</time></trkpt><trkpt lat="46.1638452" lon="10.2885702"><ele>1171.142857142857</ele><time>2026-04-12T15:43:30.863Z</time></trkpt><trkpt lat="46.1638446" lon="10.2884774"><ele>1173.4285714285713</ele><time>2026-04-12T15:43:35.864Z</time></trkpt><trkpt lat="46.1638415" lon="10.2883861"><ele>1175.7142857142858</ele><time>2026-04-12T15:43:40.864Z</time></trkpt><trkpt lat="46.1638308" lon="10.2882907"><ele>1178.0</ele><time>2026-04-12T15:43:45.864Z</time></trkpt><trkpt lat="46.1638008" lon="10.2881946"><ele>1178.0</ele><time>2026-04-12T15:43:50.863Z</time></trkpt><trkpt lat="46.1637729" lon="10.2880939"><ele>1178.0</ele><time>2026-04-12T15:43:56.865Z</time></trkpt><trkpt lat="46.1637451" lon="10.2880025"><ele>1178.0</ele><time>2026-04-12T15:44:02.865Z</time></trkpt><trkpt lat="46.1637485" lon="10.2878918"><ele>1178.0</ele><time>2026-04-12T15:44:07.865Z</time></trkpt><trkpt lat="46.1637545" lon="10.2877835"><ele>1178.0</ele><time>2026-04-12T15:44:12.865Z</time></trkpt><trkpt lat="46.1637735" lon="10.2876743"><ele>1178.0</ele><time>2026-04-12T15:44:17.865Z</time></trkpt><trkpt lat="46.1637892" lon="10.2875715"><ele>1178.0</ele><time>2026-04-12T15:44:21.865Z</time></trkpt><trkpt lat="46.1638018" lon="10.2874824"><ele>1179.857142857143</ele><time>2026-04-12T15:44:24.864Z</time></trkpt><trkpt lat="46.1638177" lon="10.287359"><ele>1181.7142857142856</ele><time>2026-04-12T15:44:27.865Z</time></trkpt><trkpt lat="46.1638289" lon="10.2872517"><ele>1183.5714285714284</ele><time>2026-04-12T15:44:30.865Z</time></trkpt><trkpt lat="46.1638531" lon="10.2871496"><ele>1185.4285714285713</ele><time>2026-04-12T15:44:34.864Z</time></trkpt><trkpt lat="46.1638863" lon="10.2870711"><ele>1187.2857142857142</ele><time>2026-04-12T15:44:37.866Z</time></trkpt><trkpt lat="46.1639147" lon="10.2869774"><ele>1189.142857142857</ele><time>2026-04-12T15:44:40.864Z</time></trkpt><trkpt lat="46.1639251" lon="10.2868708"><ele>1191.0</ele><time>2026-04-12T15:44:44.865Z</time></trkpt><trkpt lat="46.1639408" lon="10.2867571"><ele>1191.142857142857</ele><time>2026-04-12T15:44:48.865Z</time></trkpt><trkpt lat="46.1639519" lon="10.2866649"><ele>1191.2857142857142</ele><time>2026-04-12T15:44:51.865Z</time></trkpt><trkpt lat="46.1639542" lon="10.2865702"><ele>1191.4285714285713</ele><time>2026-04-12T15:44:54.865Z</time></trkpt><trkpt lat="46.1639447" lon="10.2864793"><ele>1191.5714285714284</ele><time>2026-04-12T15:44:58.865Z</time></trkpt><trkpt lat="46.1639439" lon="10.286376"><ele>1191.7142857142856</ele><time>2026-04-12T15:45:02.866Z</time></trkpt><trkpt lat="46.1639346" lon="10.2862781"><ele>1191.857142857143</ele><time>2026-04-12T15:45:07.865Z</time></trkpt><trkpt lat="46.1638805" lon="10.2863385"><ele>1192.0</ele><time>2026-04-12T15:45:15.865Z</time></trkpt><trkpt lat="46.1638598" lon="10.286425"><ele>1192.0</ele><time>2026-04-12T15:45:21.865Z</time></trkpt><trkpt lat="46.1638336" lon="10.2865135"><ele>1192.0</ele><time>2026-04-12T15:45:28.865Z</time></trkpt><trkpt lat="46.1637734" lon="10.2865721"><ele>1192.0</ele><time>2026-04-12T15:45:34.865Z</time></trkpt><trkpt lat="46.1637205" lon="10.2865125"><ele>1192.0</ele><time>2026-04-12T15:45:41.865Z</time></trkpt><trkpt lat="46.1636959" lon="10.2864238"><ele>1192.0</ele><time>2026-04-12T15:45:48.865Z</time></trkpt><trkpt lat="46.1636536" lon="10.28634"><ele>1192.0</ele><time>2026-04-12T15:45:54.865Z</time></trkpt><trkpt lat="46.1636023" lon="10.2862804"><ele>1192.0</ele><time>2026-04-12T15:46:00.865Z</time></trkpt><trkpt lat="46.16355" lon="10.2862118"><ele>1192.142857142857</ele><time>2026-04-12T15:46:06.865Z</time></trkpt><trkpt lat="46.1635063" lon="10.2861459"><ele>1192.2857142857142</ele><time>2026-04-12T15:46:11.865Z</time></trkpt><trkpt lat="46.1634757" lon="10.2860582"><ele>1192.4285714285713</ele><time>2026-04-12T15:46:17.865Z</time></trkpt><trkpt lat="46.1634296" lon="10.2859757"><ele>1192.5714285714284</ele><time>2026-04-12T15:46:23.865Z</time></trkpt><trkpt lat="46.1634014" lon="10.2858767"><ele>1192.7142857142858</ele><time>2026-04-12T15:46:29.864Z</time></trkpt><trkpt lat="46.1633671" lon="10.285788"><ele>1192.8571428571427</ele><time>2026-04-12T15:46:35.865Z</time></trkpt><trkpt lat="46.1633393" lon="10.2856972"><ele>1193.0</ele><time>2026-04-12T15:46:41.864Z</time></trkpt><trkpt lat="46.1633071" lon="10.285612"><ele>1192.7142857142856</ele><time>2026-04-12T15:46:49.864Z</time></trkpt><trkpt lat="46.1632748" lon="10.2855206"><ele>1192.4285714285713</ele><time>2026-04-12T15:46:56.864Z</time></trkpt><trkpt lat="46.1632429" lon="10.2854288"><ele>1192.142857142857</ele><time>2026-04-12T15:47:02.865Z</time></trkpt><trkpt lat="46.1632365" lon="10.2853316"><ele>1191.8571428571427</ele><time>2026-04-12T15:47:08.864Z</time></trkpt><trkpt lat="46.1632083" lon="10.2852416"><ele>1191.5714285714284</ele><time>2026-04-12T15:47:15.865Z</time></trkpt><trkpt lat="46.163182" lon="10.2851415"><ele>1191.2857142857142</ele><time>2026-04-12T15:47:20.865Z</time></trkpt><trkpt lat="46.1631702" lon="10.2850374"><ele>1191.0</ele><time>2026-04-12T15:47:26.865Z</time></trkpt><trkpt lat="46.1631525" lon="10.2849423"><ele>1196.4285714285716</ele><time>2026-04-12T15:47:31.864Z</time></trkpt><trkpt lat="46.1631367" lon="10.2848528"><ele>1201.857142857143</ele><time>2026-04-12T15:47:37.865Z</time></trkpt><trkpt lat="46.1631362" lon="10.2847564"><ele>1207.2857142857142</ele><time>2026-04-12T15:47:45.865Z</time></trkpt><trkpt lat="46.1631271" lon="10.2846647"><ele>1212.7142857142858</ele><time>2026-04-12T15:47:51.864Z</time></trkpt><trkpt lat="46.1631026" lon="10.2845686"><ele>1218.142857142857</ele><time>2026-04-12T15:47:58.864Z</time></trkpt><trkpt lat="46.163075" lon="10.2844741"><ele>1223.5714285714287</ele><time>2026-04-12T15:48:04.865Z</time></trkpt><trkpt lat="46.1630551" lon="10.284383"><ele>1229.0</ele><time>2026-04-12T15:48:10.866Z</time></trkpt><trkpt lat="46.163062" lon="10.2842639"><ele>1229.2857142857144</ele><time>2026-04-12T15:48:26.865Z</time></trkpt><trkpt lat="46.1630828" lon="10.2841673"><ele>1229.5714285714287</ele><time>2026-04-12T15:49:29.864Z</time></trkpt><trkpt lat="46.1630811" lon="10.284074"><ele>1229.857142857143</ele><time>2026-04-12T15:49:42.864Z</time></trkpt><trkpt lat="46.1630508" lon="10.2839759"><ele>1230.1428571428573</ele><time>2026-04-12T15:49:47.864Z</time></trkpt><trkpt lat="46.1630238" lon="10.2838885"><ele>1230.4285714285716</ele><time>2026-04-12T15:49:51.864Z</time></trkpt><trkpt lat="46.1629841" lon="10.2838143"><ele>1230.7142857142858</ele><time>2026-04-12T15:49:55.865Z</time></trkpt><trkpt lat="46.1629546" lon="10.2837323"><ele>1231.0</ele><time>2026-04-12T15:50:00.865Z</time></trkpt><trkpt lat="46.1629728" lon="10.2836274"><ele>1232.0</ele><time>2026-04-12T15:50:06.865Z</time></trkpt><trkpt lat="46.1629789" lon="10.283535"><ele>1233.0</ele><time>2026-04-12T15:50:12.865Z</time></trkpt><trkpt lat="46.1629695" lon="10.283431"><ele>1234.0</ele><time>2026-04-12T15:50:19.865Z</time></trkpt><trkpt lat="46.1629286" lon="10.2833522"><ele>1235.0</ele><time>2026-04-12T15:50:26.865Z</time></trkpt><trkpt lat="46.162867" lon="10.2833765"><ele>1236.0</ele><time>2026-04-12T15:50:31.865Z</time></trkpt><trkpt lat="46.1628291" lon="10.2834492"><ele>1237.0</ele><time>2026-04-12T15:50:36.867Z</time></trkpt><trkpt lat="46.1627699" lon="10.2834971"><ele>1238.0</ele><time>2026-04-12T15:50:42.867Z</time></trkpt><trkpt lat="46.1627126" lon="10.2834533"><ele>1238.0</ele><time>2026-04-12T15:50:49.865Z</time></trkpt><trkpt lat="46.1626732" lon="10.2833683"><ele>1238.0</ele><time>2026-04-12T15:50:56.866Z</time></trkpt><trkpt lat="46.1626554" lon="10.2832697"><ele>1238.0</ele><time>2026-04-12T15:51:03.865Z</time></trkpt><trkpt lat="46.1626439" lon="10.2831773"><ele>1238.0</ele><time>2026-04-12T15:51:09.865Z</time></trkpt><trkpt lat="46.1626172" lon="10.2830892"><ele>1238.0</ele><time>2026-04-12T15:51:15.866Z</time></trkpt><trkpt lat="46.162574" lon="10.2830128"><ele>1238.0</ele><time>2026-04-12T15:51:21.866Z</time></trkpt><trkpt lat="46.162529" lon="10.2829332"><ele>1238.0</ele><time>2026-04-12T15:51:27.867Z</time></trkpt><trkpt lat="46.1624842" lon="10.2828658"><ele>1239.7142857142858</ele><time>2026-04-12T15:51:32.867Z</time></trkpt><trkpt lat="46.1624306" lon="10.2827935"><ele>1241.4285714285716</ele><time>2026-04-12T15:51:38.866Z</time></trkpt><trkpt lat="46.1623773" lon="10.2827365"><ele>1243.1428571428573</ele><time>2026-04-12T15:51:43.865Z</time></trkpt><trkpt lat="46.1623295" lon="10.2826697"><ele>1244.857142857143</ele><time>2026-04-12T15:51:48.866Z</time></trkpt><trkpt lat="46.1622803" lon="10.2826063"><ele>1246.5714285714287</ele><time>2026-04-12T15:51:53.866Z</time></trkpt><trkpt lat="46.1622341" lon="10.2825435"><ele>1248.2857142857144</ele><time>2026-04-12T15:51:58.866Z</time></trkpt><trkpt lat="46.1621815" lon="10.2824689"><ele>1250.0</ele><time>2026-04-12T15:52:04.867Z</time></trkpt><trkpt lat="46.1621327" lon="10.2824102"><ele>1253.0000000000002</ele><time>2026-04-12T15:52:09.867Z</time></trkpt><trkpt lat="46.1620741" lon="10.2823469"><ele>1256.0</ele><time>2026-04-12T15:52:15.867Z</time></trkpt><trkpt lat="46.1620473" lon="10.2822549"><ele>1259.0</ele><time>2026-04-12T15:52:20.867Z</time></trkpt><trkpt lat="46.162043" lon="10.2821492"><ele>1262.0</ele><time>2026-04-12T15:52:25.866Z</time></trkpt><trkpt lat="46.1620402" lon="10.2820429"><ele>1265.0</ele><time>2026-04-12T15:52:30.866Z</time></trkpt><trkpt lat="46.1620365" lon="10.2819365"><ele>1268.0000000000002</ele><time>2026-04-12T15:52:35.866Z</time></trkpt><trkpt lat="46.1620271" lon="10.2818455"><ele>1271.0</ele><time>2026-04-12T15:52:39.866Z</time></trkpt><trkpt lat="46.1620011" lon="10.2817599"><ele>1270.857142857143</ele><time>2026-04-12T15:52:43.866Z</time></trkpt><trkpt lat="46.1619768" lon="10.2816586"><ele>1270.7142857142858</ele><time>2026-04-12T15:52:48.866Z</time></trkpt><trkpt lat="46.161949" lon="10.2815585"><ele>1270.5714285714284</ele><time>2026-04-12T15:52:53.865Z</time></trkpt><trkpt lat="46.1619222" lon="10.2814586"><ele>1270.4285714285716</ele><time>2026-04-12T15:52:58.866Z</time></trkpt><trkpt lat="46.1618976" lon="10.2813592"><ele>1270.2857142857142</ele><time>2026-04-12T15:53:03.866Z</time></trkpt><trkpt lat="46.1618682" lon="10.2812568"><ele>1270.142857142857</ele><time>2026-04-12T15:53:08.865Z</time></trkpt><trkpt lat="46.1618358" lon="10.2811613"><ele>1270.0</ele><time>2026-04-12T15:53:13.867Z</time></trkpt><trkpt lat="46.1618041" lon="10.2810685"><ele>1269.9999999999998</ele><time>2026-04-12T15:53:18.866Z</time></trkpt><trkpt lat="46.1617656" lon="10.2809742"><ele>1270.0</ele><time>2026-04-12T15:53:23.866Z</time></trkpt><trkpt lat="46.1617336" lon="10.2808811"><ele>1270.0</ele><time>2026-04-12T15:53:28.865Z</time></trkpt><trkpt lat="46.1617082" lon="10.280792"><ele>1270.0</ele><time>2026-04-12T15:53:33.866Z</time></trkpt><trkpt lat="46.1616935" lon="10.2806866"><ele>1270.0</ele><time>2026-04-12T15:53:38.867Z</time></trkpt><trkpt lat="46.1616664" lon="10.2805896"><ele>1269.9999999999998</ele><time>2026-04-12T15:53:43.866Z</time></trkpt><trkpt lat="46.1616248" lon="10.2805072"><ele>1270.0</ele><time>2026-04-12T15:53:48.866Z</time></trkpt><trkpt lat="46.1615841" lon="10.2804198"><ele>1273.142857142857</ele><time>2026-04-12T15:53:53.865Z</time></trkpt><trkpt lat="46.1615305" lon="10.2803392"><ele>1276.2857142857142</ele><time>2026-04-12T15:53:58.865Z</time></trkpt><trkpt lat="46.1614841" lon="10.2802695"><ele>1279.4285714285716</ele><time>2026-04-12T15:54:04.865Z</time></trkpt><trkpt lat="46.1614375" lon="10.2801875"><ele>1282.5714285714284</ele><time>2026-04-12T15:54:10.865Z</time></trkpt><trkpt lat="46.1613965" lon="10.2801078"><ele>1285.7142857142858</ele><time>2026-04-12T15:54:16.867Z</time></trkpt><trkpt lat="46.1613644" lon="10.2800213"><ele>1288.857142857143</ele><time>2026-04-12T15:54:22.866Z</time></trkpt><trkpt lat="46.1613172" lon="10.2799424"><ele>1292.0</ele><time>2026-04-12T15:54:28.866Z</time></trkpt><trkpt lat="46.1612488" lon="10.2799137"><ele>1292.0000000000002</ele><time>2026-04-12T15:54:33.865Z</time></trkpt><trkpt lat="46.1611839" lon="10.2798639"><ele>1292.0</ele><time>2026-04-12T15:54:39.865Z</time></trkpt><trkpt lat="46.1611143" lon="10.2798356"><ele>1292.0</ele><time>2026-04-12T15:54:45.866Z</time></trkpt><trkpt lat="46.1610449" lon="10.2798257"><ele>1292.0</ele><time>2026-04-12T15:54:52.865Z</time></trkpt><trkpt lat="46.1609772" lon="10.2798062"><ele>1292.0</ele><time>2026-04-12T15:54:59.867Z</time></trkpt><trkpt lat="46.1609183" lon="10.2797701"><ele>1292.0000000000002</ele><time>2026-04-12T15:55:04.867Z</time></trkpt><trkpt lat="46.160855" lon="10.2797683"><ele>1292.0</ele><time>2026-04-12T15:55:09.867Z</time></trkpt><trkpt lat="46.1607979" lon="10.279703"><ele>1289.2857142857144</ele><time>2026-04-12T15:55:29.865Z</time></trkpt><trkpt lat="46.1607284" lon="10.2796613"><ele>1286.5714285714287</ele><time>2026-04-12T15:55:36.865Z</time></trkpt><trkpt lat="46.1606499" lon="10.2796326"><ele>1283.857142857143</ele><time>2026-04-12T15:55:41.866Z</time></trkpt><trkpt lat="46.1605891" lon="10.2796079"><ele>1281.1428571428573</ele><time>2026-04-12T15:55:45.865Z</time></trkpt><trkpt lat="46.1605321" lon="10.2795621"><ele>1278.4285714285716</ele><time>2026-04-12T15:55:50.865Z</time></trkpt><trkpt lat="46.1604836" lon="10.2794849"><ele>1275.7142857142858</ele><time>2026-04-12T15:55:56.865Z</time></trkpt><trkpt lat="46.1604367" lon="10.2794079"><ele>1273.0</ele><time>2026-04-12T15:56:02.866Z</time></trkpt><trkpt lat="46.1603934" lon="10.2793259"><ele>1276.0</ele><time>2026-04-12T15:56:09.865Z</time></trkpt><trkpt lat="46.1603507" lon="10.2792459"><ele>1279.0</ele><time>2026-04-12T15:56:15.866Z</time></trkpt><trkpt lat="46.1602935" lon="10.27918"><ele>1282.0</ele><time>2026-04-12T15:56:22.865Z</time></trkpt><trkpt lat="46.160241" lon="10.2791253"><ele>1285.0</ele><time>2026-04-12T15:56:28.866Z</time></trkpt><trkpt lat="46.1602036" lon="10.2790448"><ele>1288.0</ele><time>2026-04-12T15:56:34.865Z</time></trkpt><trkpt lat="46.1601557" lon="10.2789767"><ele>1291.0</ele><time>2026-04-12T15:56:40.865Z</time></trkpt><trkpt lat="46.1600999" lon="10.2789154"><ele>1294.0</ele><time>2026-04-12T15:56:46.866Z</time></trkpt><trkpt lat="46.1600328" lon="10.2788599"><ele>1294.0</ele><time>2026-04-12T15:56:52.867Z</time></trkpt><trkpt lat="46.1599784" lon="10.2788003"><ele>1294.0</ele><time>2026-04-12T15:56:57.867Z</time></trkpt><trkpt lat="46.1599129" lon="10.2787812"><ele>1294.0</ele><time>2026-04-12T15:57:02.867Z</time></trkpt><trkpt lat="46.1598374" lon="10.2787682"><ele>1294.0</ele><time>2026-04-12T15:57:08.867Z</time></trkpt><trkpt lat="46.1597727" lon="10.2787658"><ele>1294.0</ele><time>2026-04-12T15:57:13.867Z</time></trkpt><trkpt lat="46.1597017" lon="10.2787482"><ele>1294.0</ele><time>2026-04-12T15:57:19.867Z</time></trkpt><trkpt lat="46.1596329" lon="10.2787428"><ele>1294.0</ele><time>2026-04-12T15:57:25.867Z</time></trkpt><trkpt lat="46.1595599" lon="10.2787589"><ele>1299.0</ele><time>2026-04-12T15:57:31.868Z</time></trkpt><trkpt lat="46.1594843" lon="10.2787612"><ele>1304.0</ele><time>2026-04-12T15:57:37.868Z</time></trkpt><trkpt lat="46.1594141" lon="10.2787515"><ele>1309.0</ele><time>2026-04-12T15:57:42.867Z</time></trkpt><trkpt lat="46.1593492" lon="10.2787191"><ele>1314.0</ele><time>2026-04-12T15:57:47.868Z</time></trkpt><trkpt lat="46.1592849" lon="10.278685"><ele>1319.0</ele><time>2026-04-12T15:57:53.868Z</time></trkpt><trkpt lat="46.1592204" lon="10.2786672"><ele>1324.0</ele><time>2026-04-12T15:57:59.867Z</time></trkpt><trkpt lat="46.159161" lon="10.2786317"><ele>1329.0</ele><time>2026-04-12T15:58:06.866Z</time></trkpt><trkpt lat="46.1590928" lon="10.2786014"><ele>1333.7142857142858</ele><time>2026-04-12T15:58:13.868Z</time></trkpt><trkpt lat="46.1590235" lon="10.2785876"><ele>1338.4285714285716</ele><time>2026-04-12T15:58:19.867Z</time></trkpt><trkpt lat="46.1589579" lon="10.2786065"><ele>1343.1428571428573</ele><time>2026-04-12T15:58:25.867Z</time></trkpt><trkpt lat="46.1588923" lon="10.2786308"><ele>1347.857142857143</ele><time>2026-04-12T15:58:31.867Z</time></trkpt><trkpt lat="46.1588293" lon="10.2786506"><ele>1352.5714285714287</ele><time>2026-04-12T15:58:37.866Z</time></trkpt><trkpt lat="46.158768" lon="10.2786824"><ele>1357.2857142857144</ele><time>2026-04-12T15:58:43.867Z</time></trkpt><trkpt lat="46.1587258" lon="10.278757"><ele>1362.0</ele><time>2026-04-12T15:58:49.868Z</time></trkpt><trkpt lat="46.1587403" lon="10.2788476"><ele>1362.0000000000002</ele><time>2026-04-12T15:58:55.868Z</time></trkpt><trkpt lat="46.1587805" lon="10.2789317"><ele>1362.0</ele><time>2026-04-12T15:59:01.867Z</time></trkpt><trkpt lat="46.1588151" lon="10.2790085"><ele>1362.0</ele><time>2026-04-12T15:59:06.868Z</time></trkpt><trkpt lat="46.1588511" lon="10.2790957"><ele>1362.0</ele><time>2026-04-12T15:59:11.867Z</time></trkpt><trkpt lat="46.158883" lon="10.2791793"><ele>1362.0</ele><time>2026-04-12T15:59:16.868Z</time></trkpt><trkpt lat="46.1589198" lon="10.2792741"><ele>1362.0000000000002</ele><time>2026-04-12T15:59:22.868Z</time></trkpt><trkpt lat="46.158972" lon="10.2793543"><ele>1362.0</ele><time>2026-04-12T15:59:28.867Z</time></trkpt><trkpt lat="46.1590349" lon="10.2793947"><ele>1359.2857142857144</ele><time>2026-04-12T15:59:33.868Z</time></trkpt><trkpt lat="46.1591031" lon="10.2794164"><ele>1356.5714285714287</ele><time>2026-04-12T15:59:38.867Z</time></trkpt><trkpt lat="46.1591691" lon="10.2794417"><ele>1353.857142857143</ele><time>2026-04-12T15:59:43.866Z</time></trkpt><trkpt lat="46.1592355" lon="10.2794541"><ele>1351.1428571428573</ele><time>2026-04-12T15:59:48.867Z</time></trkpt><trkpt lat="46.159311" lon="10.2794632"><ele>1348.4285714285716</ele><time>2026-04-12T15:59:54.867Z</time></trkpt><trkpt lat="46.159377" lon="10.2794585"><ele>1345.7142857142858</ele><time>2026-04-12T15:59:59.867Z</time></trkpt><trkpt lat="46.1594465" lon="10.2794981"><ele>1343.0</ele><time>2026-04-12T16:00:05.867Z</time></trkpt><trkpt lat="46.1594983" lon="10.2795504"><ele>1343.0</ele><time>2026-04-12T16:00:09.867Z</time></trkpt><trkpt lat="46.1595409" lon="10.2796443"><ele>1343.0</ele><time>2026-04-12T16:00:14.867Z</time></trkpt><trkpt lat="46.1595513" lon="10.2797358"><ele>1343.0</ele><time>2026-04-12T16:00:19.866Z</time></trkpt><trkpt lat="46.1595427" lon="10.2798352"><ele>1343.0</ele><time>2026-04-12T16:00:24.867Z</time></trkpt><trkpt lat="46.1595305" lon="10.2799356"><ele>1343.0</ele><time>2026-04-12T16:00:29.867Z</time></trkpt><trkpt lat="46.1595081" lon="10.2800214"><ele>1343.0</ele><time>2026-04-12T16:00:33.867Z</time></trkpt><trkpt lat="46.1595369" lon="10.2801043"><ele>1343.0</ele><time>2026-04-12T16:00:36.867Z</time></trkpt><trkpt lat="46.1595332" lon="10.2802063"><ele>1346.0</ele><time>2026-04-12T16:00:44.867Z</time></trkpt><trkpt lat="46.1595916" lon="10.2803182"><ele>1349.0</ele><time>2026-04-12T16:00:46.868Z</time></trkpt><trkpt lat="46.1595645" lon="10.2804083"><ele>1352.0</ele><time>2026-04-12T16:00:53.867Z</time></trkpt><trkpt lat="46.1595015" lon="10.2804302"><ele>1355.0</ele><time>2026-04-12T16:00:56.866Z</time></trkpt><trkpt lat="46.1594411" lon="10.2804601"><ele>1358.0</ele><time>2026-04-12T16:00:59.866Z</time></trkpt><trkpt lat="46.159362" lon="10.2804574"><ele>1361.0</ele><time>2026-04-12T16:01:03.866Z</time></trkpt><trkpt lat="46.159294" lon="10.2804287"><ele>1364.0</ele><time>2026-04-12T16:01:07.867Z</time></trkpt><trkpt lat="46.1592335" lon="10.2803625"><ele>1364.0</ele><time>2026-04-12T16:01:12.866Z</time></trkpt><trkpt lat="46.159185" lon="10.28029"><ele>1364.0</ele><time>2026-04-12T16:01:17.867Z</time></trkpt><trkpt lat="46.1591413" lon="10.2802198"><ele>1364.0</ele><time>2026-04-12T16:01:22.867Z</time></trkpt><trkpt lat="46.1590734" lon="10.2802229"><ele>1364.0</ele><time>2026-04-12T16:01:28.867Z</time></trkpt><trkpt lat="46.159049" lon="10.2803232"><ele>1364.0</ele><time>2026-04-12T16:01:34.866Z</time></trkpt><trkpt lat="46.159044" lon="10.280422"><ele>1364.0</ele><time>2026-04-12T16:01:40.867Z</time></trkpt><trkpt lat="46.1590451" lon="10.2805216"><ele>1364.0</ele><time>2026-04-12T16:01:46.868Z</time></trkpt><trkpt lat="46.1590329" lon="10.2806151"><ele>1365.857142857143</ele><time>2026-04-12T16:01:51.867Z</time></trkpt><trkpt lat="46.1590236" lon="10.2807158"><ele>1367.7142857142858</ele><time>2026-04-12T16:01:58.868Z</time></trkpt><trkpt lat="46.1590385" lon="10.2808119"><ele>1369.5714285714284</ele><time>2026-04-12T16:02:03.867Z</time></trkpt><trkpt lat="46.1590531" lon="10.2809187"><ele>1371.4285714285716</ele><time>2026-04-12T16:02:09.866Z</time></trkpt><trkpt lat="46.1590667" lon="10.2810175"><ele>1373.2857142857144</ele><time>2026-04-12T16:02:14.867Z</time></trkpt><trkpt lat="46.1590793" lon="10.2811085"><ele>1375.142857142857</ele><time>2026-04-12T16:02:19.867Z</time></trkpt><trkpt lat="46.1590929" lon="10.2812184"><ele>1377.0</ele><time>2026-04-12T16:02:25.867Z</time></trkpt><trkpt lat="46.1591063" lon="10.2813116"><ele>1377.0</ele><time>2026-04-12T16:02:31.867Z</time></trkpt><trkpt lat="46.1590858" lon="10.2814026"><ele>1377.0</ele><time>2026-04-12T16:02:37.868Z</time></trkpt><trkpt lat="46.1590302" lon="10.2814461"><ele>1377.0</ele><time>2026-04-12T16:02:42.781Z</time></trkpt><trkpt lat="46.1589666" lon="10.2814621"><ele>1377.0</ele><time>2026-04-12T16:02:47.867Z</time></trkpt><trkpt lat="46.158902" lon="10.2814372"><ele>1377.0</ele><time>2026-04-12T16:02:53.867Z</time></trkpt><trkpt lat="46.1588411" lon="10.281392"><ele>1377.0</ele><time>2026-04-12T16:02:57.867Z</time></trkpt><trkpt lat="46.1587824" lon="10.2813284"><ele>1377.0</ele><time>2026-04-12T16:03:02.868Z</time></trkpt><trkpt lat="46.1587301" lon="10.2812446"><ele>1380.5714285714284</ele><time>2026-04-12T16:03:07.868Z</time></trkpt><trkpt lat="46.1586827" lon="10.2811573"><ele>1384.1428571428573</ele><time>2026-04-12T16:03:12.868Z</time></trkpt><trkpt lat="46.1586368" lon="10.281072"><ele>1387.7142857142858</ele><time>2026-04-12T16:03:17.868Z</time></trkpt><trkpt lat="46.158591" lon="10.2810036"><ele>1391.2857142857142</ele><time>2026-04-12T16:03:21.867Z</time></trkpt><trkpt lat="46.1585445" lon="10.2809367"><ele>1394.8571428571427</ele><time>2026-04-12T16:03:25.869Z</time></trkpt><trkpt lat="46.1584958" lon="10.280853"><ele>1398.4285714285716</ele><time>2026-04-12T16:03:30.868Z</time></trkpt><trkpt lat="46.1584419" lon="10.2807843"><ele>1402.0</ele><time>2026-04-12T16:03:35.869Z</time></trkpt><trkpt lat="46.1583823" lon="10.2807209"><ele>1402.0</ele><time>2026-04-12T16:03:40.868Z</time></trkpt><trkpt lat="46.1583214" lon="10.2806528"><ele>1402.0</ele><time>2026-04-12T16:03:45.868Z</time></trkpt><trkpt lat="46.1582696" lon="10.2805947"><ele>1402.0</ele><time>2026-04-12T16:03:49.867Z</time></trkpt><trkpt lat="46.1582141" lon="10.2805439"><ele>1402.0</ele><time>2026-04-12T16:03:53.868Z</time></trkpt><trkpt lat="46.1581489" lon="10.2804909"><ele>1402.0</ele><time>2026-04-12T16:03:58.868Z</time></trkpt><trkpt lat="46.1580929" lon="10.2804455"><ele>1402.0</ele><time>2026-04-12T16:04:03.869Z</time></trkpt><trkpt lat="46.1581588" lon="10.2804889"><ele>1402.0</ele><time>2026-04-12T16:04:18.868Z</time></trkpt><trkpt lat="46.1580909" lon="10.2804753"><ele>1403.4285714285716</ele><time>2026-04-12T16:04:28.867Z</time></trkpt><trkpt lat="46.1580236" lon="10.2804618"><ele>1404.8571428571427</ele><time>2026-04-12T16:04:33.867Z</time></trkpt><trkpt lat="46.1579596" lon="10.2804215"><ele>1406.2857142857142</ele><time>2026-04-12T16:04:39.867Z</time></trkpt><trkpt lat="46.1579087" lon="10.2803575"><ele>1407.7142857142858</ele><time>2026-04-12T16:04:44.868Z</time></trkpt><trkpt lat="46.1578503" lon="10.2803098"><ele>1409.1428571428573</ele><time>2026-04-12T16:04:49.868Z</time></trkpt><trkpt lat="46.1577824" lon="10.2802773"><ele>1410.5714285714284</ele><time>2026-04-12T16:04:56.867Z</time></trkpt><trkpt lat="46.157713" lon="10.2802881"><ele>1412.0</ele><time>2026-04-12T16:05:01.867Z</time></trkpt><trkpt lat="46.1575372" lon="10.2804825"><ele>1412.0</ele><time>2026-04-12T16:06:37.867Z</time></trkpt><trkpt lat="46.1575202" lon="10.2805737"><ele>1412.0</ele><time>2026-04-12T16:06:45.868Z</time></trkpt><trkpt lat="46.1574721" lon="10.2806428"><ele>1412.0</ele><time>2026-04-12T16:06:48.868Z</time></trkpt><trkpt lat="46.1574152" lon="10.2807305"><ele>1412.0</ele><time>2026-04-12T16:06:51.867Z</time></trkpt><trkpt lat="46.1573868" lon="10.2808285"><ele>1412.0</ele><time>2026-04-12T16:06:54.868Z</time></trkpt><trkpt lat="46.157399" lon="10.2809349"><ele>1412.0</ele><time>2026-04-12T16:06:57.869Z</time></trkpt><trkpt lat="46.1574144" lon="10.2810371"><ele>1412.0</ele><time>2026-04-12T16:07:00.868Z</time></trkpt><trkpt lat="46.1574281" lon="10.2811374"><ele>1413.5</ele><time>2026-04-12T16:07:03.867Z</time></trkpt><trkpt lat="46.1574358" lon="10.2812411"><ele>1415.0</ele><time>2026-04-12T16:07:06.867Z</time></trkpt><trkpt lat="46.1574323" lon="10.2813531"><ele>1416.5</ele><time>2026-04-12T16:07:09.867Z</time></trkpt><trkpt lat="46.1574291" lon="10.2814656"><ele>1418.0</ele><time>2026-04-12T16:07:12.868Z</time></trkpt><trkpt lat="46.1574253" lon="10.2815874"><ele>1419.5</ele><time>2026-04-12T16:07:15.868Z</time></trkpt><trkpt lat="46.1574198" lon="10.2817118"><ele>1421.0</ele><time>2026-04-12T16:07:18.868Z</time></trkpt><trkpt lat="46.1574316" lon="10.2818354"><ele>1422.3333333333335</ele><time>2026-04-12T16:07:21.869Z</time></trkpt><trkpt lat="46.1574646" lon="10.2819535"><ele>1423.6666666666667</ele><time>2026-04-12T16:07:24.867Z</time></trkpt><trkpt lat="46.1574864" lon="10.2820637"><ele>1425.0</ele><time>2026-04-12T16:07:27.868Z</time></trkpt><trkpt lat="46.1575184" lon="10.2821716"><ele>1426.3333333333333</ele><time>2026-04-12T16:07:31.868Z</time></trkpt><trkpt lat="46.1575887" lon="10.2821647"><ele>1427.6666666666665</ele><time>2026-04-12T16:07:37.869Z</time></trkpt><trkpt lat="46.1576549" lon="10.2820802"><ele>1429.0</ele><time>2026-04-12T16:07:41.867Z</time></trkpt><trkpt lat="46.1577159" lon="10.2820222"><ele>1429.0</ele><time>2026-04-12T16:07:44.868Z</time></trkpt><trkpt lat="46.1577809" lon="10.2819828"><ele>1429.0</ele><time>2026-04-12T16:07:48.868Z</time></trkpt><trkpt lat="46.1578533" lon="10.2820029"><ele>1429.0</ele><time>2026-04-12T16:07:53.868Z</time></trkpt><trkpt lat="46.1578997" lon="10.2820714"><ele>1429.0</ele><time>2026-04-12T16:07:56.869Z</time></trkpt><trkpt lat="46.1579436" lon="10.2821626"><ele>1429.0</ele><time>2026-04-12T16:08:01.869Z</time></trkpt><trkpt lat="46.1579832" lon="10.2822426"><ele>1429.0</ele><time>2026-04-12T16:08:07.868Z</time></trkpt><trkpt lat="46.1580177" lon="10.2823388"><ele>1429.0</ele><time>2026-04-12T16:08:11.869Z</time></trkpt><trkpt lat="46.1580471" lon="10.2824431"><ele>1429.2857142857142</ele><time>2026-04-12T16:08:14.869Z</time></trkpt><trkpt lat="46.158083" lon="10.2825499"><ele>1429.5714285714284</ele><time>2026-04-12T16:08:17.869Z</time></trkpt><trkpt lat="46.1581212" lon="10.2826522"><ele>1429.8571428571427</ele><time>2026-04-12T16:08:20.868Z</time></trkpt><trkpt lat="46.1581594" lon="10.2827371"><ele>1430.142857142857</ele><time>2026-04-12T16:08:23.869Z</time></trkpt><trkpt lat="46.1581902" lon="10.2828287"><ele>1430.4285714285713</ele><time>2026-04-12T16:08:26.868Z</time></trkpt><trkpt lat="46.1582164" lon="10.2829158"><ele>1430.7142857142856</ele><time>2026-04-12T16:08:29.868Z</time></trkpt><trkpt lat="46.1582404" lon="10.2830013"><ele>1431.0</ele><time>2026-04-12T16:08:32.869Z</time></trkpt><trkpt lat="46.1582622" lon="10.2830944"><ele>1428.8571428571427</ele><time>2026-04-12T16:08:35.87Z</time></trkpt><trkpt lat="46.1582817" lon="10.2831837"><ele>1426.7142857142858</ele><time>2026-04-12T16:08:38.87Z</time></trkpt><trkpt lat="46.1582998" lon="10.2832796"><ele>1424.5714285714284</ele><time>2026-04-12T16:08:41.869Z</time></trkpt><trkpt lat="46.1583073" lon="10.2833829"><ele>1422.4285714285713</ele><time>2026-04-12T16:08:44.868Z</time></trkpt><trkpt lat="46.1583081" lon="10.2834886"><ele>1420.2857142857142</ele><time>2026-04-12T16:08:47.869Z</time></trkpt><trkpt lat="46.1583025" lon="10.2835883"><ele>1418.142857142857</ele><time>2026-04-12T16:08:50.869Z</time></trkpt><trkpt lat="46.1582928" lon="10.2836818"><ele>1416.0</ele><time>2026-04-12T16:08:53.869Z</time></trkpt><trkpt lat="46.1582828" lon="10.2837934"><ele>1416.0</ele><time>2026-04-12T16:08:57.868Z</time></trkpt><trkpt lat="46.1582763" lon="10.2839091"><ele>1416.0</ele><time>2026-04-12T16:09:01.87Z</time></trkpt><trkpt lat="46.1582726" lon="10.2840169"><ele>1416.0</ele><time>2026-04-12T16:09:05.869Z</time></trkpt><trkpt lat="46.1582741" lon="10.284116"><ele>1416.0</ele><time>2026-04-12T16:09:09.868Z</time></trkpt><trkpt lat="46.1582824" lon="10.2842132"><ele>1416.0</ele><time>2026-04-12T16:09:13.869Z</time></trkpt><trkpt lat="46.1583015" lon="10.2843131"><ele>1416.0</ele><time>2026-04-12T16:09:17.869Z</time></trkpt><trkpt lat="46.1583196" lon="10.2844107"><ele>1416.0</ele><time>2026-04-12T16:09:21.869Z</time></trkpt><trkpt lat="46.1583216" lon="10.2845049"><ele>1417.0</ele><time>2026-04-12T16:09:25.869Z</time></trkpt><trkpt lat="46.1583675" lon="10.2845835"><ele>1418.0</ele><time>2026-04-12T16:09:30.868Z</time></trkpt><trkpt lat="46.1584236" lon="10.2846316"><ele>1419.0</ele><time>2026-04-12T16:09:35.87Z</time></trkpt><trkpt lat="46.1584777" lon="10.284696"><ele>1420.0</ele><time>2026-04-12T16:09:40.869Z</time></trkpt><trkpt lat="46.1585308" lon="10.2847478"><ele>1421.0</ele><time>2026-04-12T16:09:45.87Z</time></trkpt><trkpt lat="46.1585842" lon="10.2848014"><ele>1422.0</ele><time>2026-04-12T16:09:50.868Z</time></trkpt><trkpt lat="46.1586458" lon="10.2848328"><ele>1423.0</ele><time>2026-04-12T16:09:54.868Z</time></trkpt><trkpt lat="46.1587079" lon="10.2848753"><ele>1423.4285714285716</ele><time>2026-04-12T16:09:57.869Z</time></trkpt><trkpt lat="46.1587985" lon="10.2848949"><ele>1423.8571428571427</ele><time>2026-04-12T16:09:59.869Z</time></trkpt><trkpt lat="46.15887" lon="10.2849166"><ele>1424.2857142857142</ele><time>2026-04-12T16:10:02.868Z</time></trkpt><trkpt lat="46.1589374" lon="10.2849613"><ele>1424.7142857142858</ele><time>2026-04-12T16:10:06.869Z</time></trkpt><trkpt lat="46.1589948" lon="10.2850025"><ele>1425.1428571428573</ele><time>2026-04-12T16:10:11.868Z</time></trkpt><trkpt lat="46.1590187" lon="10.2850872"><ele>1425.5714285714284</ele><time>2026-04-12T16:10:42.869Z</time></trkpt><trkpt lat="46.1590493" lon="10.2851913"><ele>1426.0</ele><time>2026-04-12T16:10:47.869Z</time></trkpt><trkpt lat="46.1590217" lon="10.2852949"><ele>1426.0</ele><time>2026-04-12T16:10:49.869Z</time></trkpt><trkpt lat="46.1589677" lon="10.2853973"><ele>1426.0</ele><time>2026-04-12T16:10:51.869Z</time></trkpt><trkpt lat="46.1589193" lon="10.2854901"><ele>1426.0</ele><time>2026-04-12T16:10:55.869Z</time></trkpt><trkpt lat="46.1588684" lon="10.2855606"><ele>1426.0</ele><time>2026-04-12T16:10:59.868Z</time></trkpt><trkpt lat="46.158823" lon="10.2856465"><ele>1426.0</ele><time>2026-04-12T16:11:03.87Z</time></trkpt><trkpt lat="46.1587928" lon="10.2857548"><ele>1426.0</ele><time>2026-04-12T16:11:08.868Z</time></trkpt><trkpt lat="46.1587905" lon="10.2858507"><ele>1426.142857142857</ele><time>2026-04-12T16:11:12.869Z</time></trkpt><trkpt lat="46.1588132" lon="10.2859467"><ele>1426.2857142857144</ele><time>2026-04-12T16:11:17.87Z</time></trkpt><trkpt lat="46.1588543" lon="10.2860191"><ele>1426.4285714285716</ele><time>2026-04-12T16:11:23.868Z</time></trkpt><trkpt lat="46.1588962" lon="10.2861301"><ele>1426.5714285714284</ele><time>2026-04-12T16:11:47.869Z</time></trkpt><trkpt lat="46.1589405" lon="10.28622"><ele>1426.7142857142858</ele><time>2026-04-12T16:11:51.869Z</time></trkpt><trkpt lat="46.1589716" lon="10.2863067"><ele>1426.857142857143</ele><time>2026-04-12T16:11:56.868Z</time></trkpt><trkpt lat="46.1589219" lon="10.2863918"><ele>1427.0</ele><time>2026-04-12T16:12:54.868Z</time></trkpt><trkpt lat="46.1588655" lon="10.2864796"><ele>1427.2857142857142</ele><time>2026-04-12T16:12:55.869Z</time></trkpt><trkpt lat="46.1588034" lon="10.2865659"><ele>1427.5714285714287</ele><time>2026-04-12T16:12:57.869Z</time></trkpt><trkpt lat="46.1587545" lon="10.2866569"><ele>1427.857142857143</ele><time>2026-04-12T16:13:00.869Z</time></trkpt><trkpt lat="46.1587427" lon="10.2867605"><ele>1428.142857142857</ele><time>2026-04-12T16:13:06.869Z</time></trkpt><trkpt lat="46.1587238" lon="10.2868621"><ele>1428.4285714285713</ele><time>2026-04-12T16:13:10.868Z</time></trkpt><trkpt lat="46.158681" lon="10.2869303"><ele>1428.7142857142858</ele><time>2026-04-12T16:13:17.869Z</time></trkpt><trkpt lat="46.1586774" lon="10.2870298"><ele>1429.0</ele><time>2026-04-12T16:13:22.868Z</time></trkpt><trkpt lat="46.1586559" lon="10.2871412"><ele>1429.0</ele><time>2026-04-12T16:13:27.871Z</time></trkpt><trkpt lat="46.1586663" lon="10.2872345"><ele>1429.0</ele><time>2026-04-12T16:13:33.87Z</time></trkpt><trkpt lat="46.158736" lon="10.2872727"><ele>1429.0</ele><time>2026-04-12T16:13:39.87Z</time></trkpt><trkpt lat="46.1587887" lon="10.2873331"><ele>1429.0</ele><time>2026-04-12T16:13:43.871Z</time></trkpt><trkpt lat="46.1587916" lon="10.287425"><ele>1429.0</ele><time>2026-04-12T16:13:48.87Z</time></trkpt><trkpt lat="46.1587795" lon="10.2875544"><ele>1429.0</ele><time>2026-04-12T16:13:53.87Z</time></trkpt><trkpt lat="46.1587553" lon="10.2876744"><ele>1429.0</ele><time>2026-04-12T16:13:55.87Z</time></trkpt><trkpt lat="46.1586915" lon="10.2876841"><ele>1428.8333333333333</ele><time>2026-04-12T16:13:57.87Z</time></trkpt><trkpt lat="46.1586121" lon="10.2876925"><ele>1428.6666666666665</ele><time>2026-04-12T16:13:59.869Z</time></trkpt><trkpt lat="46.1584983" lon="10.287786"><ele>1428.5</ele><time>2026-04-12T16:14:01.87Z</time></trkpt><trkpt lat="46.1584367" lon="10.2877279"><ele>1428.3333333333333</ele><time>2026-04-12T16:14:04.87Z</time></trkpt><trkpt lat="46.1585043" lon="10.2877788"><ele>1428.1666666666667</ele><time>2026-04-12T16:16:36.869Z</time></trkpt><trkpt lat="46.1585662" lon="10.2877447"><ele>1428.0</ele><time>2026-04-12T16:16:40.87Z</time></trkpt><trkpt lat="46.1586288" lon="10.2877273"><ele>1428.0</ele><time>2026-04-12T16:16:49.87Z</time></trkpt><trkpt lat="46.1586888" lon="10.2877995"><ele>1428.0</ele><time>2026-04-12T16:16:53.87Z</time></trkpt><trkpt lat="46.1587613" lon="10.2878217"><ele>1428.0</ele><time>2026-04-12T16:17:06.87Z</time></trkpt><trkpt lat="46.158832" lon="10.2878202"><ele>1428.0</ele><time>2026-04-12T16:17:09.869Z</time></trkpt><trkpt lat="46.1589089" lon="10.2877919"><ele>1428.0</ele><time>2026-04-12T16:17:23.87Z</time></trkpt><trkpt lat="46.1589432" lon="10.2877123"><ele>1428.0</ele><time>2026-04-12T16:17:42.869Z</time></trkpt><trkpt lat="46.1589704" lon="10.2876267"><ele>1428.0</ele><time>2026-04-12T16:17:46.871Z</time></trkpt><trkpt lat="46.1590066" lon="10.2875474"><ele>1428.0</ele><time>2026-04-12T16:18:10.871Z</time></trkpt><trkpt lat="46.1589894" lon="10.2874431"><ele>1428.0</ele><time>2026-04-12T16:18:31.871Z</time></trkpt><trkpt lat="46.1589799" lon="10.2873473"><ele>1428.0</ele><time>2026-04-12T16:18:36.872Z</time></trkpt><trkpt lat="46.1589969" lon="10.2872306"><ele>1428.0</ele><time>2026-04-12T16:21:01.871Z</time></trkpt><trkpt lat="46.158955" lon="10.2871574"><ele>1428.0</ele><time>2026-04-12T16:21:21.872Z</time></trkpt><trkpt lat="46.1589264" lon="10.2870725"><ele>1428.0</ele><time>2026-04-12T16:21:31.87Z</time></trkpt><trkpt lat="46.158922" lon="10.28698"><ele>1428.0</ele><time>2026-04-12T16:21:40.871Z</time></trkpt><trkpt lat="46.1589384" lon="10.2868827"><ele>1428.142857142857</ele><time>2026-04-12T16:21:52.872Z</time></trkpt><trkpt lat="46.1589288" lon="10.2867814"><ele>1428.2857142857142</ele><time>2026-04-12T16:22:04.872Z</time></trkpt><trkpt lat="46.158927" lon="10.2866799"><ele>1428.4285714285716</ele><time>2026-04-12T16:22:20.872Z</time></trkpt><trkpt lat="46.1589" lon="10.2865799"><ele>1428.5714285714284</ele><time>2026-04-12T16:22:26.871Z</time></trkpt><trkpt lat="46.1588612" lon="10.286485"><ele>1428.7142857142858</ele><time>2026-04-12T16:22:32.87Z</time></trkpt><trkpt lat="46.1588122" lon="10.2864179"><ele>1428.857142857143</ele><time>2026-04-12T16:22:36.871Z</time></trkpt><trkpt lat="46.1587963" lon="10.2863284"><ele>1429.0</ele><time>2026-04-12T16:22:41.871Z</time></trkpt><trkpt lat="46.158817" lon="10.2862425"><ele>1428.7142857142858</ele><time>2026-04-12T16:22:46.87Z</time></trkpt><trkpt lat="46.1588462" lon="10.2861383"><ele>1428.4285714285713</ele><time>2026-04-12T16:22:51.872Z</time></trkpt><trkpt lat="46.1588408" lon="10.2860365"><ele>1428.142857142857</ele><time>2026-04-12T16:22:56.872Z</time></trkpt><trkpt lat="46.1588036" lon="10.2859616"><ele>1427.857142857143</ele><time>2026-04-12T16:23:00.87Z</time></trkpt><trkpt lat="46.1587952" lon="10.2858653"><ele>1427.5714285714287</ele><time>2026-04-12T16:23:03.872Z</time></trkpt><trkpt lat="46.1587916" lon="10.2857643"><ele>1427.2857142857142</ele><time>2026-04-12T16:23:06.87Z</time></trkpt><trkpt lat="46.1588031" lon="10.2856729"><ele>1427.0</ele><time>2026-04-12T16:23:10.87Z</time></trkpt><trkpt lat="46.1588462" lon="10.285588"><ele>1426.8333333333335</ele><time>2026-04-12T16:23:14.872Z</time></trkpt><trkpt lat="46.1589142" lon="10.2855467"><ele>1426.6666666666667</ele><time>2026-04-12T16:23:19.872Z</time></trkpt><trkpt lat="46.1589732" lon="10.2854352"><ele>1426.5</ele><time>2026-04-12T16:23:23.872Z</time></trkpt><trkpt lat="46.1590374" lon="10.2853668"><ele>1426.3333333333333</ele><time>2026-04-12T16:23:50.873Z</time></trkpt><trkpt lat="46.1590813" lon="10.2852808"><ele>1426.1666666666665</ele><time>2026-04-12T16:23:56.872Z</time></trkpt><trkpt lat="46.1591319" lon="10.2851919"><ele>1426.0</ele><time>2026-04-12T16:24:00.873Z</time></trkpt><trkpt lat="46.1591664" lon="10.2851093"><ele>1425.5714285714284</ele><time>2026-04-12T16:24:02.871Z</time></trkpt><trkpt lat="46.1591584" lon="10.2850026"><ele>1425.1428571428573</ele><time>2026-04-12T16:24:07.872Z</time></trkpt><trkpt lat="46.1591546" lon="10.2848948"><ele>1424.7142857142858</ele><time>2026-04-12T16:24:12.872Z</time></trkpt><trkpt lat="46.1591546" lon="10.2847922"><ele>1424.2857142857142</ele><time>2026-04-12T16:24:17.873Z</time></trkpt><trkpt lat="46.1591173" lon="10.2846981"><ele>1423.8571428571427</ele><time>2026-04-12T16:24:22.872Z</time></trkpt><trkpt lat="46.159049" lon="10.2846738"><ele>1423.4285714285716</ele><time>2026-04-12T16:24:26.873Z</time></trkpt><trkpt lat="46.1590089" lon="10.2845778"><ele>1423.0</ele><time>2026-04-12T16:24:32.873Z</time></trkpt><trkpt lat="46.1589953" lon="10.284473"><ele>1423.0</ele><time>2026-04-12T16:24:36.873Z</time></trkpt><trkpt lat="46.1590053" lon="10.2843832"><ele>1423.0</ele><time>2026-04-12T16:24:40.872Z</time></trkpt><trkpt lat="46.158966" lon="10.2843106"><ele>1423.0</ele><time>2026-04-12T16:24:46.872Z</time></trkpt><trkpt lat="46.1589209" lon="10.2842404"><ele>1423.0</ele><time>2026-04-12T16:24:51.871Z</time></trkpt><trkpt lat="46.158903" lon="10.2841283"><ele>1423.0</ele><time>2026-04-12T16:24:56.871Z</time></trkpt><trkpt lat="46.1589154" lon="10.284029"><ele>1423.0</ele><time>2026-04-12T16:25:00.872Z</time></trkpt><trkpt lat="46.1589075" lon="10.2839373"><ele>1423.0</ele><time>2026-04-12T16:25:03.872Z</time></trkpt><trkpt lat="46.1588817" lon="10.2838506"><ele>1422.0</ele><time>2026-04-12T16:25:07.872Z</time></trkpt><trkpt lat="46.1588615" lon="10.2837644"><ele>1421.0</ele><time>2026-04-12T16:25:11.871Z</time></trkpt><trkpt lat="46.1588334" lon="10.2836627"><ele>1420.0</ele><time>2026-04-12T16:25:15.871Z</time></trkpt><trkpt lat="46.1588068" lon="10.2835754"><ele>1419.0</ele><time>2026-04-12T16:25:18.872Z</time></trkpt><trkpt lat="46.1587814" lon="10.2834915"><ele>1418.0</ele><time>2026-04-12T16:25:21.872Z</time></trkpt><trkpt lat="46.1587578" lon="10.2833796"><ele>1417.0</ele><time>2026-04-12T16:25:25.871Z</time></trkpt><trkpt lat="46.1587444" lon="10.2832626"><ele>1416.0</ele><time>2026-04-12T16:25:29.871Z</time></trkpt><trkpt lat="46.1587204" lon="10.2831672"><ele>1415.2857142857144</ele><time>2026-04-12T16:25:32.872Z</time></trkpt><trkpt lat="46.158684" lon="10.2830474"><ele>1414.5714285714284</ele><time>2026-04-12T16:25:35.871Z</time></trkpt><trkpt lat="46.1586587" lon="10.2829552"><ele>1413.857142857143</ele><time>2026-04-12T16:25:37.873Z</time></trkpt><trkpt lat="46.1586363" lon="10.2828555"><ele>1413.1428571428573</ele><time>2026-04-12T16:25:39.872Z</time></trkpt><trkpt lat="46.1586322" lon="10.2827646"><ele>1412.4285714285716</ele><time>2026-04-12T16:25:41.872Z</time></trkpt><trkpt lat="46.1586509" lon="10.2826437"><ele>1411.7142857142858</ele><time>2026-04-12T16:25:44.872Z</time></trkpt><trkpt lat="46.1586833" lon="10.2825569"><ele>1411.0</ele><time>2026-04-12T16:25:47.871Z</time></trkpt><trkpt lat="46.1586891" lon="10.2824617"><ele>1411.0</ele><time>2026-04-12T16:25:52.871Z</time></trkpt><trkpt lat="46.1587143" lon="10.28235"><ele>1411.0</ele><time>2026-04-12T16:25:57.872Z</time></trkpt><trkpt lat="46.1587609" lon="10.2822712"><ele>1411.0</ele><time>2026-04-12T16:26:03.871Z</time></trkpt><trkpt lat="46.158799" lon="10.2821883"><ele>1411.0</ele><time>2026-04-12T16:26:06.872Z</time></trkpt><trkpt lat="46.1588554" lon="10.2821149"><ele>1411.0</ele><time>2026-04-12T16:26:09.871Z</time></trkpt><trkpt lat="46.1589335" lon="10.282178"><ele>1411.0</ele><time>2026-04-12T16:26:13.871Z</time></trkpt><trkpt lat="46.1589921" lon="10.2822304"><ele>1411.0000000000002</ele><time>2026-04-12T16:26:16.871Z</time></trkpt><trkpt lat="46.1590208" lon="10.2823134"><ele>1411.0</ele><time>2026-04-12T16:26:19.871Z</time></trkpt><trkpt lat="46.1590664" lon="10.2824147"><ele>1411.0</ele><time>2026-04-12T16:26:23.872Z</time></trkpt><trkpt lat="46.1591075" lon="10.2824933"><ele>1411.0</ele><time>2026-04-12T16:26:26.871Z</time></trkpt><trkpt lat="46.1591458" lon="10.2825769"><ele>1411.0</ele><time>2026-04-12T16:26:29.871Z</time></trkpt><trkpt lat="46.1591791" lon="10.2826911"><ele>1411.0000000000002</ele><time>2026-04-12T16:26:32.872Z</time></trkpt><trkpt lat="46.1592191" lon="10.2827868"><ele>1411.0</ele><time>2026-04-12T16:26:35.872Z</time></trkpt><trkpt lat="46.1592615" lon="10.282894"><ele>1410.5714285714287</ele><time>2026-04-12T16:26:38.872Z</time></trkpt><trkpt lat="46.1593029" lon="10.2829726"><ele>1410.142857142857</ele><time>2026-04-12T16:26:40.871Z</time></trkpt><trkpt lat="46.1593407" lon="10.2830471"><ele>1409.7142857142858</ele><time>2026-04-12T16:26:42.872Z</time></trkpt><trkpt lat="46.1593744" lon="10.2831345"><ele>1409.2857142857142</ele><time>2026-04-12T16:26:44.872Z</time></trkpt><trkpt lat="46.15942" lon="10.2832708"><ele>1408.857142857143</ele><time>2026-04-12T16:26:47.872Z</time></trkpt><trkpt lat="46.1594528" lon="10.2833641"><ele>1408.4285714285716</ele><time>2026-04-12T16:26:49.872Z</time></trkpt><trkpt lat="46.1594834" lon="10.2834542"><ele>1408.0</ele><time>2026-04-12T16:26:51.871Z</time></trkpt><trkpt lat="46.1595119" lon="10.2835587"><ele>1408.0</ele><time>2026-04-12T16:26:53.872Z</time></trkpt><trkpt lat="46.1595468" lon="10.2836645"><ele>1408.0</ele><time>2026-04-12T16:26:55.872Z</time></trkpt><trkpt lat="46.159564" lon="10.2837658"><ele>1408.0</ele><time>2026-04-12T16:26:57.872Z</time></trkpt><trkpt lat="46.1595924" lon="10.2838604"><ele>1408.0</ele><time>2026-04-12T16:26:59.873Z</time></trkpt><trkpt lat="46.1596236" lon="10.2839745"><ele>1408.0</ele><time>2026-04-12T16:27:01.872Z</time></trkpt><trkpt lat="46.1596407" lon="10.2840886"><ele>1408.0</ele><time>2026-04-12T16:27:03.872Z</time></trkpt><trkpt lat="46.1596833" lon="10.284236"><ele>1409.0</ele><time>2026-04-12T16:27:05.872Z</time></trkpt><trkpt lat="46.1597361" lon="10.2843091"><ele>1410.0</ele><time>2026-04-12T16:27:06.872Z</time></trkpt><trkpt lat="46.1597832" lon="10.2843755"><ele>1411.0</ele><time>2026-04-12T16:27:07.872Z</time></trkpt><trkpt lat="46.159885" lon="10.2844978"><ele>1412.0</ele><time>2026-04-12T16:27:09.873Z</time></trkpt><trkpt lat="46.1599441" lon="10.2845633"><ele>1413.0</ele><time>2026-04-12T16:27:10.872Z</time></trkpt><trkpt lat="46.160022" lon="10.2846661"><ele>1407.1666666666667</ele><time>2026-04-12T16:27:12.872Z</time></trkpt><trkpt lat="46.1600754" lon="10.284741"><ele>1401.3333333333333</ele><time>2026-04-12T16:27:14.873Z</time></trkpt><trkpt lat="46.1601452" lon="10.2848066"><ele>1395.5</ele><time>2026-04-12T16:27:17.872Z</time></trkpt><trkpt lat="46.1601984" lon="10.2848943"><ele>1389.6666666666665</ele><time>2026-04-12T16:27:20.872Z</time></trkpt><trkpt lat="46.1602453" lon="10.2849999"><ele>1383.8333333333333</ele><time>2026-04-12T16:27:23.872Z</time></trkpt><trkpt lat="46.1602927" lon="10.2851048"><ele>1378.0</ele><time>2026-04-12T16:27:26.872Z</time></trkpt><trkpt lat="46.160329" lon="10.2851848"><ele>1378.0</ele><time>2026-04-12T16:27:28.872Z</time></trkpt><trkpt lat="46.1603338" lon="10.2852965"><ele>1378.0</ele><time>2026-04-12T16:27:30.871Z</time></trkpt><trkpt lat="46.1603521" lon="10.2853872"><ele>1378.0</ele><time>2026-04-12T16:27:32.873Z</time></trkpt><trkpt lat="46.1604049" lon="10.2854509"><ele>1378.0</ele><time>2026-04-12T16:27:35.871Z</time></trkpt><trkpt lat="46.1604365" lon="10.2855452"><ele>1378.0</ele><time>2026-04-12T16:27:41.871Z</time></trkpt><trkpt lat="46.1604761" lon="10.285645"><ele>1378.0</ele><time>2026-04-12T16:27:45.872Z</time></trkpt><trkpt lat="46.1603993" lon="10.2857066"><ele>1377.5714285714284</ele><time>2026-04-12T16:27:47.872Z</time></trkpt><trkpt lat="46.1603714" lon="10.2858073"><ele>1377.142857142857</ele><time>2026-04-12T16:27:50.872Z</time></trkpt><trkpt lat="46.1603672" lon="10.2859002"><ele>1376.7142857142858</ele><time>2026-04-12T16:27:57.872Z</time></trkpt><trkpt lat="46.1604031" lon="10.2859944"><ele>1376.2857142857142</ele><time>2026-04-12T16:28:03.872Z</time></trkpt><trkpt lat="46.1604246" lon="10.2860997"><ele>1375.857142857143</ele><time>2026-04-12T16:28:07.873Z</time></trkpt><trkpt lat="46.1604054" lon="10.2861928"><ele>1375.4285714285713</ele><time>2026-04-12T16:28:11.872Z</time></trkpt><trkpt lat="46.1603656" lon="10.2862741"><ele>1375.0</ele><time>2026-04-12T16:28:27.874Z</time></trkpt><trkpt lat="46.160325" lon="10.2863838"><ele>1372.3333333333333</ele><time>2026-04-12T16:28:31.873Z</time></trkpt><trkpt lat="46.1603084" lon="10.286493"><ele>1369.6666666666665</ele><time>2026-04-12T16:28:35.873Z</time></trkpt><trkpt lat="46.1603526" lon="10.2865943"><ele>1367.0</ele><time>2026-04-12T16:28:38.872Z</time></trkpt><trkpt lat="46.1603574" lon="10.2867003"><ele>1364.3333333333333</ele><time>2026-04-12T16:28:41.874Z</time></trkpt><trkpt lat="46.1603481" lon="10.286821"><ele>1361.6666666666667</ele><time>2026-04-12T16:28:44.872Z</time></trkpt><trkpt lat="46.1603237" lon="10.2869274"><ele>1359.0</ele><time>2026-04-12T16:28:47.872Z</time></trkpt><trkpt lat="46.1603151" lon="10.2870456"><ele>1359.0</ele><time>2026-04-12T16:28:50.873Z</time></trkpt><trkpt lat="46.1603086" lon="10.2871714"><ele>1359.0</ele><time>2026-04-12T16:28:55.872Z</time></trkpt><trkpt lat="46.1603061" lon="10.2872949"><ele>1359.0</ele><time>2026-04-12T16:28:59.872Z</time></trkpt><trkpt lat="46.1602921" lon="10.2874075"><ele>1359.0</ele><time>2026-04-12T16:29:02.872Z</time></trkpt><trkpt lat="46.160273" lon="10.2875024"><ele>1359.0</ele><time>2026-04-12T16:29:05.873Z</time></trkpt><trkpt lat="46.1602564" lon="10.2875933"><ele>1359.0</ele><time>2026-04-12T16:29:37.873Z</time></trkpt><trkpt lat="46.1602614" lon="10.2877343"><ele>1356.5</ele><time>2026-04-12T16:29:40.874Z</time></trkpt><trkpt lat="46.1602551" lon="10.2878439"><ele>1354.0</ele><time>2026-04-12T16:29:42.873Z</time></trkpt><trkpt lat="46.1602376" lon="10.287963"><ele>1351.5</ele><time>2026-04-12T16:29:45.873Z</time></trkpt><trkpt lat="46.1602215" lon="10.2880995"><ele>1349.0</ele><time>2026-04-12T16:29:48.872Z</time></trkpt><trkpt lat="46.1602242" lon="10.2882006"><ele>1346.5</ele><time>2026-04-12T16:29:51.873Z</time></trkpt><trkpt lat="46.1602566" lon="10.288291"><ele>1344.0</ele><time>2026-04-12T16:29:54.873Z</time></trkpt><trkpt lat="46.1602966" lon="10.288365"><ele>1341.142857142857</ele><time>2026-04-12T16:30:04.872Z</time></trkpt><trkpt lat="46.1602887" lon="10.2884586"><ele>1338.2857142857142</ele><time>2026-04-12T16:30:07.873Z</time></trkpt><trkpt lat="46.1602946" lon="10.2885542"><ele>1335.4285714285716</ele><time>2026-04-12T16:30:10.873Z</time></trkpt><trkpt lat="46.1603462" lon="10.2886455"><ele>1332.5714285714284</ele><time>2026-04-12T16:30:13.873Z</time></trkpt><trkpt lat="46.1603642" lon="10.2887515"><ele>1329.7142857142858</ele><time>2026-04-12T16:30:19.874Z</time></trkpt><trkpt lat="46.1603681" lon="10.2888504"><ele>1326.857142857143</ele><time>2026-04-12T16:30:24.873Z</time></trkpt><trkpt lat="46.1604134" lon="10.2889196"><ele>1324.0</ele><time>2026-04-12T16:30:47.873Z</time></trkpt><trkpt lat="46.1604249" lon="10.2890242"><ele>1321.857142857143</ele><time>2026-04-12T16:30:51.874Z</time></trkpt><trkpt lat="46.1604295" lon="10.2891222"><ele>1319.7142857142858</ele><time>2026-04-12T16:30:54.874Z</time></trkpt><trkpt lat="46.1604055" lon="10.2892131"><ele>1317.5714285714284</ele><time>2026-04-12T16:30:59.873Z</time></trkpt><trkpt lat="46.1604104" lon="10.2893212"><ele>1315.4285714285716</ele><time>2026-04-12T16:31:11.873Z</time></trkpt><trkpt lat="46.1604717" lon="10.2893424"><ele>1313.2857142857142</ele><time>2026-04-12T16:31:21.872Z</time></trkpt><trkpt lat="46.1604656" lon="10.2894673"><ele>1311.142857142857</ele><time>2026-04-12T16:31:26.873Z</time></trkpt><trkpt lat="46.160469" lon="10.2895779"><ele>1309.0</ele><time>2026-04-12T16:31:29.873Z</time></trkpt><trkpt lat="46.1604563" lon="10.2896704"><ele>1307.0</ele><time>2026-04-12T16:31:33.874Z</time></trkpt><trkpt lat="46.1604595" lon="10.2897707"><ele>1305.0</ele><time>2026-04-12T16:31:42.873Z</time></trkpt><trkpt lat="46.160445" lon="10.2898675"><ele>1303.0</ele><time>2026-04-12T16:31:47.872Z</time></trkpt><trkpt lat="46.1604845" lon="10.2899521"><ele>1301.0</ele><time>2026-04-12T16:31:51.873Z</time></trkpt><trkpt lat="46.1605245" lon="10.2900233"><ele>1299.0</ele><time>2026-04-12T16:32:00.872Z</time></trkpt><trkpt lat="46.1605141" lon="10.2901651"><ele>1297.0</ele><time>2026-04-12T16:32:26.874Z</time></trkpt><trkpt lat="46.1605583" lon="10.290234"><ele>1295.0</ele><time>2026-04-12T16:32:43.874Z</time></trkpt><trkpt lat="46.1606084" lon="10.2903036"><ele>1295.0</ele><time>2026-04-12T16:33:00.874Z</time></trkpt><trkpt lat="46.1606659" lon="10.2903752"><ele>1295.0</ele><time>2026-04-12T16:33:04.874Z</time></trkpt><trkpt lat="46.1607169" lon="10.2904535"><ele>1295.0</ele><time>2026-04-12T16:33:08.875Z</time></trkpt><trkpt lat="46.1607727" lon="10.2905625"><ele>1295.0</ele><time>2026-04-12T16:33:11.874Z</time></trkpt><trkpt lat="46.1607984" lon="10.2906486"><ele>1295.0</ele><time>2026-04-12T16:33:13.874Z</time></trkpt><trkpt lat="46.1608556" lon="10.2907265"><ele>1295.0</ele><time>2026-04-12T16:33:16.874Z</time></trkpt><trkpt lat="46.1608312" lon="10.2908288"><ele>1292.5</ele><time>2026-04-12T16:33:20.874Z</time></trkpt><trkpt lat="46.160827" lon="10.2909337"><ele>1290.0</ele><time>2026-04-12T16:33:23.874Z</time></trkpt><trkpt lat="46.1608066" lon="10.2910275"><ele>1287.5</ele><time>2026-04-12T16:33:25.875Z</time></trkpt><trkpt lat="46.1607523" lon="10.2911476"><ele>1285.0</ele><time>2026-04-12T16:33:27.874Z</time></trkpt><trkpt lat="46.1606915" lon="10.2912179"><ele>1282.5</ele><time>2026-04-12T16:33:28.874Z</time></trkpt><trkpt lat="46.1606347" lon="10.2913123"><ele>1280.0</ele><time>2026-04-12T16:33:30.874Z</time></trkpt><trkpt lat="46.1606369" lon="10.2914427"><ele>1275.5</ele><time>2026-04-12T16:33:32.873Z</time></trkpt><trkpt lat="46.1605999" lon="10.2915498"><ele>1271.0</ele><time>2026-04-12T16:33:34.874Z</time></trkpt><trkpt lat="46.1605301" lon="10.2916085"><ele>1266.5</ele><time>2026-04-12T16:33:36.874Z</time></trkpt><trkpt lat="46.1604693" lon="10.291707"><ele>1262.0</ele><time>2026-04-12T16:33:39.874Z</time></trkpt><trkpt lat="46.1604023" lon="10.2917674"><ele>1257.5</ele><time>2026-04-12T16:33:42.873Z</time></trkpt><trkpt lat="46.1603333" lon="10.291854"><ele>1253.0</ele><time>2026-04-12T16:33:45.874Z</time></trkpt><trkpt lat="46.1602652" lon="10.2919097"><ele>1253.0</ele><time>2026-04-12T16:33:48.874Z</time></trkpt><trkpt lat="46.1601717" lon="10.2919497"><ele>1253.0</ele><time>2026-04-12T16:33:51.874Z</time></trkpt><trkpt lat="46.1600776" lon="10.2919319"><ele>1253.0</ele><time>2026-04-12T16:33:55.874Z</time></trkpt><trkpt lat="46.1600095" lon="10.2919224"><ele>1253.0</ele><time>2026-04-12T16:33:57.875Z</time></trkpt><trkpt lat="46.1599408" lon="10.2919061"><ele>1253.0</ele><time>2026-04-12T16:33:59.873Z</time></trkpt><trkpt lat="46.1598755" lon="10.2919218"><ele>1253.0</ele><time>2026-04-12T16:34:01.873Z</time></trkpt><trkpt lat="46.159844" lon="10.2920254"><ele>1255.5</ele><time>2026-04-12T16:34:04.875Z</time></trkpt><trkpt lat="46.1598213" lon="10.2921512"><ele>1258.0</ele><time>2026-04-12T16:34:07.874Z</time></trkpt><trkpt lat="46.1598112" lon="10.2922616"><ele>1260.5</ele><time>2026-04-12T16:34:10.873Z</time></trkpt><trkpt lat="46.1598337" lon="10.2923515"><ele>1263.0</ele><time>2026-04-12T16:34:14.874Z</time></trkpt><trkpt lat="46.1598423" lon="10.292447"><ele>1265.5</ele><time>2026-04-12T16:34:18.874Z</time></trkpt><trkpt lat="46.1598525" lon="10.2925548"><ele>1268.0</ele><time>2026-04-12T16:34:21.874Z</time></trkpt><trkpt lat="46.1598751" lon="10.2926679"><ele>1268.0</ele><time>2026-04-12T16:34:26.873Z</time></trkpt><trkpt lat="46.1598604" lon="10.2927784"><ele>1268.0</ele><time>2026-04-12T16:34:28.874Z</time></trkpt><trkpt lat="46.1598318" lon="10.2929049"><ele>1268.0</ele><time>2026-04-12T16:34:30.875Z</time></trkpt><trkpt lat="46.1598337" lon="10.2930181"><ele>1268.0</ele><time>2026-04-12T16:34:33.875Z</time></trkpt><trkpt lat="46.1598557" lon="10.2931061"><ele>1268.0</ele><time>2026-04-12T16:34:35.873Z</time></trkpt><trkpt lat="46.159881" lon="10.2932002"><ele>1268.0</ele><time>2026-04-12T16:34:38.874Z</time></trkpt><trkpt lat="46.1598566" lon="10.2932946"><ele>1263.857142857143</ele><time>2026-04-12T16:34:41.873Z</time></trkpt><trkpt lat="46.1598655" lon="10.2933982"><ele>1259.7142857142858</ele><time>2026-04-12T16:34:45.874Z</time></trkpt><trkpt lat="46.1599297" lon="10.293395"><ele>1255.5714285714284</ele><time>2026-04-12T16:34:49.874Z</time></trkpt><trkpt lat="46.159989" lon="10.2933617"><ele>1251.4285714285716</ele><time>2026-04-12T16:34:52.874Z</time></trkpt><trkpt lat="46.1600552" lon="10.2932649"><ele>1247.2857142857142</ele><time>2026-04-12T16:34:55.874Z</time></trkpt><trkpt lat="46.1600666" lon="10.293171"><ele>1243.142857142857</ele><time>2026-04-12T16:34:57.873Z</time></trkpt><trkpt lat="46.1600725" lon="10.2930801"><ele>1239.0</ele><time>2026-04-12T16:34:59.874Z</time></trkpt><trkpt lat="46.1600811" lon="10.2929887"><ele>1237.0</ele><time>2026-04-12T16:35:01.874Z</time></trkpt><trkpt lat="46.1601651" lon="10.2929662"><ele>1235.0</ele><time>2026-04-12T16:35:04.874Z</time></trkpt><trkpt lat="46.1602268" lon="10.2930249"><ele>1233.0</ele><time>2026-04-12T16:35:06.873Z</time></trkpt><trkpt lat="46.1602536" lon="10.2931107"><ele>1231.0</ele><time>2026-04-12T16:35:08.875Z</time></trkpt><trkpt lat="46.1602532" lon="10.2932048"><ele>1229.0</ele><time>2026-04-12T16:35:10.875Z</time></trkpt><trkpt lat="46.160244" lon="10.2933245"><ele>1227.0</ele><time>2026-04-12T16:35:13.873Z</time></trkpt><trkpt lat="46.1602536" lon="10.2934278"><ele>1225.0</ele><time>2026-04-12T16:35:15.874Z</time></trkpt><trkpt lat="46.160281" lon="10.2935133"><ele>1221.7142857142858</ele><time>2026-04-12T16:35:18.874Z</time></trkpt><trkpt lat="46.1603092" lon="10.2936245"><ele>1218.4285714285716</ele><time>2026-04-12T16:35:22.874Z</time></trkpt><trkpt lat="46.1602787" lon="10.2937539"><ele>1215.142857142857</ele><time>2026-04-12T16:35:25.874Z</time></trkpt><trkpt lat="46.1602674" lon="10.2938453"><ele>1211.857142857143</ele><time>2026-04-12T16:35:27.875Z</time></trkpt><trkpt lat="46.1602772" lon="10.2939366"><ele>1208.5714285714287</ele><time>2026-04-12T16:35:29.875Z</time></trkpt><trkpt lat="46.1602643" lon="10.2940288"><ele>1205.2857142857142</ele><time>2026-04-12T16:35:31.874Z</time></trkpt><trkpt lat="46.1602224" lon="10.2941239"><ele>1202.0</ele><time>2026-04-12T16:35:33.875Z</time></trkpt><trkpt lat="46.1601912" lon="10.2942418"><ele>1202.0</ele><time>2026-04-12T16:35:36.874Z</time></trkpt><trkpt lat="46.1602564" lon="10.2942809"><ele>1202.0</ele><time>2026-04-12T16:35:40.873Z</time></trkpt><trkpt lat="46.1603201" lon="10.2941921"><ele>1202.0</ele><time>2026-04-12T16:35:43.874Z</time></trkpt><trkpt lat="46.1603472" lon="10.2941049"><ele>1202.0</ele><time>2026-04-12T16:35:45.875Z</time></trkpt><trkpt lat="46.1603758" lon="10.2939904"><ele>1202.0</ele><time>2026-04-12T16:35:48.875Z</time></trkpt><trkpt lat="46.1604145" lon="10.2938911"><ele>1202.0</ele><time>2026-04-12T16:35:50.873Z</time></trkpt><trkpt lat="46.1604671" lon="10.2938291"><ele>1202.0</ele><time>2026-04-12T16:35:52.873Z</time></trkpt><trkpt lat="46.1605283" lon="10.2937438"><ele>1202.0</ele><time>2026-04-12T16:35:55.873Z</time></trkpt><trkpt lat="46.1605326" lon="10.2935871"><ele>1202.0</ele><time>2026-04-12T16:35:58.874Z</time></trkpt><trkpt lat="46.1605837" lon="10.2934777"><ele>1202.0</ele><time>2026-04-12T16:36:01.874Z</time></trkpt><trkpt lat="46.1606445" lon="10.2934048"><ele>1202.0</ele><time>2026-04-12T16:36:05.874Z</time></trkpt><trkpt lat="46.1607065" lon="10.2933376"><ele>1202.0</ele><time>2026-04-12T16:36:09.874Z</time></trkpt><trkpt lat="46.1607738" lon="10.2933634"><ele>1195.6</ele><time>2026-04-12T16:36:12.875Z</time></trkpt><trkpt lat="46.1608413" lon="10.2934328"><ele>1189.2</ele><time>2026-04-12T16:36:15.874Z</time></trkpt><trkpt lat="46.1609" lon="10.2934673"><ele>1182.8</ele><time>2026-04-12T16:36:17.875Z</time></trkpt><trkpt lat="46.1609882" lon="10.29347"><ele>1176.4</ele><time>2026-04-12T16:36:41.875Z</time></trkpt><trkpt lat="46.1610582" lon="10.2935182"><ele>1170.0</ele><time>2026-04-12T16:36:45.875Z</time></trkpt><trkpt lat="46.161203" lon="10.2935303"><ele>1170.0</ele><time>2026-04-12T16:36:51.876Z</time></trkpt><trkpt lat="46.1612834" lon="10.2935552"><ele>1170.0</ele><time>2026-04-12T16:36:54.875Z</time></trkpt><trkpt lat="46.1613569" lon="10.2934847"><ele>1170.0</ele><time>2026-04-12T16:36:59.875Z</time></trkpt><trkpt lat="46.1614289" lon="10.2934547"><ele>1170.0</ele><time>2026-04-12T16:37:01.875Z</time></trkpt><trkpt lat="46.1615037" lon="10.2934328"><ele>1170.0</ele><time>2026-04-12T16:37:03.875Z</time></trkpt><trkpt lat="46.1615731" lon="10.2934369"><ele>1170.0</ele><time>2026-04-12T16:37:05.874Z</time></trkpt><trkpt lat="46.1616568" lon="10.2934805"><ele>1164.6666666666667</ele><time>2026-04-12T16:37:10.874Z</time></trkpt><trkpt lat="46.1617303" lon="10.293504"><ele>1159.3333333333333</ele><time>2026-04-12T16:37:12.875Z</time></trkpt><trkpt lat="46.1618214" lon="10.2935255"><ele>1154.0</ele><time>2026-04-12T16:37:15.874Z</time></trkpt><trkpt lat="46.1619257" lon="10.2934906"><ele>1148.6666666666665</ele><time>2026-04-12T16:37:17.875Z</time></trkpt><trkpt lat="46.1620039" lon="10.2934426"><ele>1143.3333333333333</ele><time>2026-04-12T16:37:19.874Z</time></trkpt><trkpt lat="46.1620667" lon="10.2934015"><ele>1138.0</ele><time>2026-04-12T16:37:21.875Z</time></trkpt><trkpt lat="46.1621454" lon="10.2933912"><ele>1138.0000000000002</ele><time>2026-04-12T16:37:24.874Z</time></trkpt><trkpt lat="46.1622155" lon="10.2933887"><ele>1138.0</ele><time>2026-04-12T16:37:27.874Z</time></trkpt><trkpt lat="46.1622853" lon="10.2933795"><ele>1138.0</ele><time>2026-04-12T16:37:30.875Z</time></trkpt><trkpt lat="46.1623635" lon="10.293357"><ele>1138.0</ele><time>2026-04-12T16:37:32.875Z</time></trkpt><trkpt lat="46.1624409" lon="10.2933199"><ele>1138.0</ele><time>2026-04-12T16:37:34.875Z</time></trkpt><trkpt lat="46.1624927" lon="10.2932474"><ele>1138.0000000000002</ele><time>2026-04-12T16:37:37.875Z</time></trkpt><trkpt lat="46.1625358" lon="10.2931748"><ele>1138.0</ele><time>2026-04-12T16:37:40.875Z</time></trkpt><trkpt lat="46.1625402" lon="10.2930734"><ele>1136.3333333333333</ele><time>2026-04-12T16:37:46.875Z</time></trkpt><trkpt lat="46.1626008" lon="10.2929914"><ele>1134.6666666666665</ele><time>2026-04-12T16:37:51.874Z</time></trkpt><trkpt lat="46.1626687" lon="10.2929529"><ele>1133.0</ele><time>2026-04-12T16:37:55.874Z</time></trkpt><trkpt lat="46.1627428" lon="10.292919"><ele>1131.3333333333333</ele><time>2026-04-12T16:37:58.875Z</time></trkpt><trkpt lat="46.1628082" lon="10.2929201"><ele>1129.6666666666667</ele><time>2026-04-12T16:38:01.874Z</time></trkpt><trkpt lat="46.1628981" lon="10.2929003"><ele>1128.0</ele><time>2026-04-12T16:38:06.875Z</time></trkpt><trkpt lat="46.1629588" lon="10.292949"><ele>1128.0</ele><time>2026-04-12T16:38:11.875Z</time></trkpt><trkpt lat="46.1630103" lon="10.2930177"><ele>1128.0</ele><time>2026-04-12T16:38:14.875Z</time></trkpt><trkpt lat="46.1630986" lon="10.2930498"><ele>1128.0</ele><time>2026-04-12T16:38:17.875Z</time></trkpt><trkpt lat="46.1631691" lon="10.293089"><ele>1128.0</ele><time>2026-04-12T16:38:19.875Z</time></trkpt><trkpt lat="46.1632527" lon="10.2931123"><ele>1128.0</ele><time>2026-04-12T16:38:22.874Z</time></trkpt><trkpt lat="46.1632725" lon="10.2932068"><ele>1128.0</ele><time>2026-04-12T16:38:26.876Z</time></trkpt><trkpt lat="46.1632731" lon="10.2933195"><ele>1118.6666666666667</ele><time>2026-04-12T16:38:29.875Z</time></trkpt><trkpt lat="46.1633156" lon="10.2933971"><ele>1109.3333333333333</ele><time>2026-04-12T16:38:36.874Z</time></trkpt><trkpt lat="46.1633945" lon="10.2934045"><ele>1100.0</ele><time>2026-04-12T16:38:45.874Z</time></trkpt><trkpt lat="46.1634885" lon="10.2934838"><ele>1090.6666666666665</ele><time>2026-04-12T16:38:59.876Z</time></trkpt><trkpt lat="46.1635227" lon="10.2935767"><ele>1081.3333333333333</ele><time>2026-04-12T16:39:05.875Z</time></trkpt><trkpt lat="46.1634991" lon="10.2936692"><ele>1072.0</ele><time>2026-04-12T16:39:10.875Z</time></trkpt><trkpt lat="46.1635002" lon="10.2937602"><ele>1072.0</ele><time>2026-04-12T16:39:17.874Z</time></trkpt><trkpt lat="46.1635737" lon="10.2937512"><ele>1072.0</ele><time>2026-04-12T16:39:22.876Z</time></trkpt><trkpt lat="46.163604" lon="10.2936584"><ele>1072.0</ele><time>2026-04-12T16:39:27.875Z</time></trkpt><trkpt lat="46.1636256" lon="10.2935686"><ele>1072.0</ele><time>2026-04-12T16:39:32.876Z</time></trkpt><trkpt lat="46.1636606" lon="10.2934578"><ele>1072.0</ele><time>2026-04-12T16:39:36.876Z</time></trkpt><trkpt lat="46.1636323" lon="10.2933667"><ele>1072.0</ele><time>2026-04-12T16:39:43.874Z</time></trkpt><trkpt lat="46.1636288" lon="10.2932707"><ele>1072.0</ele><time>2026-04-12T16:40:12.875Z</time></trkpt><trkpt lat="46.1636792" lon="10.2932115"><ele>1072.0</ele><time>2026-04-12T16:40:28.876Z</time></trkpt><trkpt lat="46.1637624" lon="10.2931856"><ele>1072.0</ele><time>2026-04-12T16:40:32.875Z</time></trkpt><trkpt lat="46.1638451" lon="10.2931657"><ele>1072.0</ele><time>2026-04-12T16:40:34.875Z</time></trkpt><trkpt lat="46.1639138" lon="10.2931576"><ele>1072.0</ele><time>2026-04-12T16:40:36.875Z</time></trkpt><trkpt lat="46.1639912" lon="10.2931118"><ele>1072.0</ele><time>2026-04-12T16:40:39.876Z</time></trkpt><trkpt lat="46.1640487" lon="10.2930487"><ele>1072.0</ele><time>2026-04-12T16:40:42.876Z</time></trkpt><trkpt lat="46.1640939" lon="10.2929703"><ele>1070.0</ele><time>2026-04-12T16:41:02.876Z</time></trkpt><trkpt lat="46.1641518" lon="10.2929156"><ele>1068.0</ele><time>2026-04-12T16:41:06.876Z</time></trkpt><trkpt lat="46.164199" lon="10.2928543"><ele>1066.0</ele><time>2026-04-12T16:41:10.876Z</time></trkpt><trkpt lat="46.1642338" lon="10.2927676"><ele>1064.0</ele><time>2026-04-12T16:41:15.877Z</time></trkpt><trkpt lat="46.1642442" lon="10.2926504"><ele>1062.0</ele><time>2026-04-12T16:41:21.876Z</time></trkpt><trkpt lat="46.1642787" lon="10.292566"><ele>1060.0</ele><time>2026-04-12T16:41:24.877Z</time></trkpt><trkpt lat="46.1643375" lon="10.2924934"><ele>1058.0</ele><time>2026-04-12T16:41:27.876Z</time></trkpt><trkpt lat="46.164387" lon="10.2924313"><ele>1058.0</ele><time>2026-04-12T16:41:29.875Z</time></trkpt><trkpt lat="46.1644413" lon="10.2923267"><ele>1058.0</ele><time>2026-04-12T16:41:32.876Z</time></trkpt><trkpt lat="46.1644948" lon="10.2922374"><ele>1058.0</ele><time>2026-04-12T16:41:35.875Z</time></trkpt><trkpt lat="46.1645503" lon="10.2921723"><ele>1058.0</ele><time>2026-04-12T16:42:02.876Z</time></trkpt><trkpt lat="46.1645808" lon="10.2920905"><ele>1058.0</ele><time>2026-04-12T16:42:09.876Z</time></trkpt><trkpt lat="46.1646266" lon="10.292022"><ele>1058.0</ele><time>2026-04-12T16:42:12.877Z</time></trkpt><trkpt lat="46.1646857" lon="10.2919445"><ele>1056.5</ele><time>2026-04-12T16:42:15.877Z</time></trkpt><trkpt lat="46.1647591" lon="10.2918702"><ele>1055.0</ele><time>2026-04-12T16:42:18.875Z</time></trkpt><trkpt lat="46.1648517" lon="10.2919191"><ele>1053.5</ele><time>2026-04-12T16:42:20.876Z</time></trkpt><trkpt lat="46.1649253" lon="10.2919977"><ele>1052.0</ele><time>2026-04-12T16:42:22.876Z</time></trkpt><trkpt lat="46.1649718" lon="10.2920897"><ele>1050.5</ele><time>2026-04-12T16:42:24.876Z</time></trkpt><trkpt lat="46.1650134" lon="10.2921665"><ele>1049.0</ele><time>2026-04-12T16:42:26.876Z</time></trkpt><trkpt lat="46.1650875" lon="10.2922171"><ele>1049.0</ele><time>2026-04-12T16:42:29.875Z</time></trkpt><trkpt lat="46.1651465" lon="10.292165"><ele>1049.0</ele><time>2026-04-12T16:42:32.877Z</time></trkpt><trkpt lat="46.1651688" lon="10.2920506"><ele>1049.0</ele><time>2026-04-12T16:42:35.875Z</time></trkpt><trkpt lat="46.1651967" lon="10.2919417"><ele>1049.0</ele><time>2026-04-12T16:42:38.875Z</time></trkpt><trkpt lat="46.1652329" lon="10.2918672"><ele>1049.0</ele><time>2026-04-12T16:42:41.875Z</time></trkpt><trkpt lat="46.1652643" lon="10.2917767"><ele>1049.0</ele><time>2026-04-12T16:42:44.876Z</time></trkpt><trkpt lat="46.1653096" lon="10.2917059"><ele>1049.0</ele><time>2026-04-12T16:42:47.876Z</time></trkpt><trkpt lat="46.1653926" lon="10.2916236"><ele>1049.0</ele><time>2026-04-12T16:42:50.876Z</time></trkpt><trkpt lat="46.1654407" lon="10.2915637"><ele>1049.0</ele><time>2026-04-12T16:42:52.876Z</time></trkpt><trkpt lat="46.1654903" lon="10.2915064"><ele>1049.0</ele><time>2026-04-12T16:42:54.875Z</time></trkpt><trkpt lat="46.1655399" lon="10.2914404"><ele>1049.0</ele><time>2026-04-12T16:42:56.876Z</time></trkpt><trkpt lat="46.1656089" lon="10.2913716"><ele>1049.0</ele><time>2026-04-12T16:42:58.875Z</time></trkpt><trkpt lat="46.16568" lon="10.2913028"><ele>1049.0</ele><time>2026-04-12T16:43:00.876Z</time></trkpt><trkpt lat="46.1657349" lon="10.2912039"><ele>1044.6666666666667</ele><time>2026-04-12T16:43:02.877Z</time></trkpt><trkpt lat="46.1657948" lon="10.2911255"><ele>1040.3333333333335</ele><time>2026-04-12T16:43:04.876Z</time></trkpt><trkpt lat="46.1658455" lon="10.2910629"><ele>1036.0</ele><time>2026-04-12T16:43:06.876Z</time></trkpt><trkpt lat="46.1659002" lon="10.2909888"><ele>1031.6666666666667</ele><time>2026-04-12T16:43:08.876Z</time></trkpt><trkpt lat="46.1659513" lon="10.2909154"><ele>1027.3333333333333</ele><time>2026-04-12T16:43:10.876Z</time></trkpt><trkpt lat="46.1660235" lon="10.2907578"><ele>1023.0</ele><time>2026-04-12T16:43:12.876Z</time></trkpt><trkpt lat="46.1660463" lon="10.2906183"><ele>1024.857142857143</ele><time>2026-04-12T16:43:14.875Z</time></trkpt><trkpt lat="46.1660482" lon="10.2905143"><ele>1026.7142857142858</ele><time>2026-04-12T16:43:16.876Z</time></trkpt><trkpt lat="46.1660512" lon="10.290419"><ele>1028.5714285714284</ele><time>2026-04-12T16:43:18.876Z</time></trkpt><trkpt lat="46.1660481" lon="10.2903216"><ele>1030.4285714285716</ele><time>2026-04-12T16:43:21.876Z</time></trkpt><trkpt lat="46.1660601" lon="10.2902209"><ele>1032.2857142857142</ele><time>2026-04-12T16:43:25.876Z</time></trkpt><trkpt lat="46.1660809" lon="10.290133"><ele>1034.142857142857</ele><time>2026-04-12T16:43:28.876Z</time></trkpt><trkpt lat="46.1661147" lon="10.2900545"><ele>1036.0</ele><time>2026-04-12T16:43:31.876Z</time></trkpt><trkpt lat="46.166151" lon="10.2899634"><ele>1036.0</ele><time>2026-04-12T16:43:35.876Z</time></trkpt><trkpt lat="46.166178" lon="10.2898515"><ele>1036.0</ele><time>2026-04-12T16:43:38.875Z</time></trkpt><trkpt lat="46.1661877" lon="10.2897547"><ele>1036.0</ele><time>2026-04-12T16:43:40.875Z</time></trkpt><trkpt lat="46.1662077" lon="10.289646"><ele>1036.0</ele><time>2026-04-12T16:43:42.875Z</time></trkpt><trkpt lat="46.1662321" lon="10.2895474"><ele>1036.0</ele><time>2026-04-12T16:43:44.876Z</time></trkpt><trkpt lat="46.1662428" lon="10.2894444"><ele>1036.0</ele><time>2026-04-12T16:43:46.876Z</time></trkpt><trkpt lat="46.1662416" lon="10.2893321"><ele>1036.857142857143</ele><time>2026-04-12T16:43:48.877Z</time></trkpt><trkpt lat="46.1662427" lon="10.2892239"><ele>1037.7142857142858</ele><time>2026-04-12T16:43:50.877Z</time></trkpt><trkpt lat="46.1662349" lon="10.2890997"><ele>1038.5714285714284</ele><time>2026-04-12T16:43:53.876Z</time></trkpt><trkpt lat="46.1662501" lon="10.2890032"><ele>1039.4285714285716</ele><time>2026-04-12T16:43:55.876Z</time></trkpt><trkpt lat="46.1662484" lon="10.2889005"><ele>1040.2857142857142</ele><time>2026-04-12T16:43:57.876Z</time></trkpt><trkpt lat="46.1662405" lon="10.2888099"><ele>1041.142857142857</ele><time>2026-04-12T16:43:59.876Z</time></trkpt><trkpt lat="46.1662349" lon="10.2887046"><ele>1042.0</ele><time>2026-04-12T16:44:02.876Z</time></trkpt><trkpt lat="46.1662387" lon="10.2885831"><ele>1042.1666666666665</ele><time>2026-04-12T16:44:05.877Z</time></trkpt><trkpt lat="46.1662479" lon="10.2884905"><ele>1042.3333333333333</ele><time>2026-04-12T16:44:07.875Z</time></trkpt><trkpt lat="46.1662704" lon="10.2884044"><ele>1042.5</ele><time>2026-04-12T16:44:10.877Z</time></trkpt><trkpt lat="46.1663459" lon="10.2884014"><ele>1042.6666666666667</ele><time>2026-04-12T16:44:15.876Z</time></trkpt><trkpt lat="46.1663646" lon="10.2885217"><ele>1042.8333333333335</ele><time>2026-04-12T16:44:17.876Z</time></trkpt><trkpt lat="46.1663891" lon="10.2886445"><ele>1043.0</ele><time>2026-04-12T16:44:19.877Z</time></trkpt><trkpt lat="46.166416" lon="10.2887592"><ele>1043.0</ele><time>2026-04-12T16:44:21.877Z</time></trkpt><trkpt lat="46.1664971" lon="10.2888023"><ele>1043.0</ele><time>2026-04-12T16:44:24.877Z</time></trkpt><trkpt lat="46.1665928" lon="10.2887618"><ele>1043.0</ele><time>2026-04-12T16:44:26.877Z</time></trkpt><trkpt lat="46.1666333" lon="10.2886669"><ele>1043.0</ele><time>2026-04-12T16:44:29.878Z</time></trkpt><trkpt lat="46.1667037" lon="10.2886501"><ele>1043.0</ele><time>2026-04-12T16:44:32.877Z</time></trkpt><trkpt lat="46.1667687" lon="10.2885917"><ele>1043.0</ele><time>2026-04-12T16:44:35.876Z</time></trkpt><trkpt lat="46.1667968" lon="10.288501"><ele>1034.8333333333335</ele><time>2026-04-12T16:44:37.877Z</time></trkpt><trkpt lat="46.1668265" lon="10.2884041"><ele>1026.6666666666667</ele><time>2026-04-12T16:44:40.876Z</time></trkpt><trkpt lat="46.1668533" lon="10.288312"><ele>1018.5</ele><time>2026-04-12T16:44:42.877Z</time></trkpt><trkpt lat="46.1668863" lon="10.2882107"><ele>1010.3333333333333</ele><time>2026-04-12T16:44:44.877Z</time></trkpt><trkpt lat="46.1669216" lon="10.2881208"><ele>1002.1666666666666</ele><time>2026-04-12T16:44:46.876Z</time></trkpt><trkpt lat="46.1669187" lon="10.2880085"><ele>994.0</ele><time>2026-04-12T16:44:50.877Z</time></trkpt><trkpt lat="46.1668932" lon="10.2878902"><ele>993.9999999999999</ele><time>2026-04-12T16:44:54.878Z</time></trkpt><trkpt lat="46.1669034" lon="10.2877777"><ele>994.0</ele><time>2026-04-12T16:44:57.877Z</time></trkpt><trkpt lat="46.1669163" lon="10.2876803"><ele>994.0</ele><time>2026-04-12T16:44:59.876Z</time></trkpt><trkpt lat="46.1669388" lon="10.2875606"><ele>994.0</ele><time>2026-04-12T16:45:02.878Z</time></trkpt><trkpt lat="46.1669361" lon="10.2874517"><ele>993.9999999999999</ele><time>2026-04-12T16:45:06.877Z</time></trkpt><trkpt lat="46.1669671" lon="10.2873366"><ele>994.0</ele><time>2026-04-12T16:45:10.876Z</time></trkpt><trkpt lat="46.166976" lon="10.2872391"><ele>994.4999999999999</ele><time>2026-04-12T16:45:13.876Z</time></trkpt><trkpt lat="46.166994" lon="10.287148"><ele>995.0</ele><time>2026-04-12T16:45:15.877Z</time></trkpt><trkpt lat="46.1669774" lon="10.2870589"><ele>995.5</ele><time>2026-04-12T16:45:48.877Z</time></trkpt><trkpt lat="46.1670172" lon="10.2869406"><ele>996.0</ele><time>2026-04-12T16:45:57.877Z</time></trkpt><trkpt lat="46.1670655" lon="10.2868703"><ele>996.4999999999999</ele><time>2026-04-12T16:45:59.877Z</time></trkpt><trkpt lat="46.1671722" lon="10.2868487"><ele>997.0</ele><time>2026-04-12T16:46:01.877Z</time></trkpt><trkpt lat="46.1672458" lon="10.2867854"><ele>994.8</ele><time>2026-04-12T16:46:03.876Z</time></trkpt><trkpt lat="46.1673825" lon="10.2867121"><ele>992.6</ele><time>2026-04-12T16:46:05.876Z</time></trkpt><trkpt lat="46.1674414" lon="10.2866752"><ele>990.3999999999999</ele><time>2026-04-12T16:46:06.877Z</time></trkpt><trkpt lat="46.1675383" lon="10.2865849"><ele>988.1999999999999</ele><time>2026-04-12T16:46:08.876Z</time></trkpt><trkpt lat="46.1676429" lon="10.2865118"><ele>986.0</ele><time>2026-04-12T16:46:10.876Z</time></trkpt><trkpt lat="46.167699" lon="10.2864014"><ele>986.0</ele><time>2026-04-12T16:46:12.877Z</time></trkpt><trkpt lat="46.1677553" lon="10.2863276"><ele>986.0</ele><time>2026-04-12T16:46:15.877Z</time></trkpt><trkpt lat="46.167813" lon="10.2862731"><ele>986.0</ele><time>2026-04-12T16:46:18.876Z</time></trkpt><trkpt lat="46.1678611" lon="10.2861964"><ele>986.0</ele><time>2026-04-12T16:46:20.876Z</time></trkpt><trkpt lat="46.1679035" lon="10.2861281"><ele>986.0</ele><time>2026-04-12T16:46:22.877Z</time></trkpt><trkpt lat="46.1679568" lon="10.2860319"><ele>986.0</ele><time>2026-04-12T16:46:25.878Z</time></trkpt><trkpt lat="46.1680062" lon="10.2859614"><ele>986.0</ele><time>2026-04-12T16:46:29.878Z</time></trkpt><trkpt lat="46.1680574" lon="10.2858784"><ele>986.0</ele><time>2026-04-12T16:46:33.878Z</time></trkpt><trkpt lat="46.1680899" lon="10.2857999"><ele>986.0</ele><time>2026-04-12T16:46:36.877Z</time></trkpt><trkpt lat="46.1681045" lon="10.285711"><ele>986.0</ele><time>2026-04-12T16:46:45.877Z</time></trkpt><trkpt lat="46.1681424" lon="10.2856301"><ele>986.0</ele><time>2026-04-12T16:46:48.878Z</time></trkpt><trkpt lat="46.1681509" lon="10.2855232"><ele>986.0</ele><time>2026-04-12T16:46:50.877Z</time></trkpt><trkpt lat="46.1681504" lon="10.2854285"><ele>986.0</ele><time>2026-04-12T16:46:52.877Z</time></trkpt><trkpt lat="46.1681609" lon="10.285337"><ele>986.0</ele><time>2026-04-12T16:46:54.876Z</time></trkpt><trkpt lat="46.1681949" lon="10.2852443"><ele>981.8333333333334</ele><time>2026-04-12T16:46:57.877Z</time></trkpt><trkpt lat="46.1682232" lon="10.2851421"><ele>977.6666666666667</ele><time>2026-04-12T16:47:00.877Z</time></trkpt><trkpt lat="46.1682685" lon="10.2850562"><ele>973.5</ele><time>2026-04-12T16:47:03.876Z</time></trkpt><trkpt lat="46.1683077" lon="10.2849803"><ele>969.3333333333333</ele><time>2026-04-12T16:47:05.877Z</time></trkpt><trkpt lat="46.1683429" lon="10.2848878"><ele>965.1666666666666</ele><time>2026-04-12T16:47:09.878Z</time></trkpt><trkpt lat="46.1684179" lon="10.2847826"><ele>961.0</ele><time>2026-04-12T16:47:12.877Z</time></trkpt><trkpt lat="46.1684645" lon="10.284717"><ele>960.9999999999999</ele><time>2026-04-12T16:47:15.877Z</time></trkpt><trkpt lat="46.1685044" lon="10.2846004"><ele>961.0</ele><time>2026-04-12T16:47:18.876Z</time></trkpt><trkpt lat="46.1685537" lon="10.2845025"><ele>961.0</ele><time>2026-04-12T16:47:21.878Z</time></trkpt><trkpt lat="46.1685563" lon="10.2844029"><ele>961.0</ele><time>2026-04-12T16:47:24.876Z</time></trkpt><trkpt lat="46.1685811" lon="10.284311"><ele>960.9999999999999</ele><time>2026-04-12T16:47:26.876Z</time></trkpt><trkpt lat="46.1686135" lon="10.2842075"><ele>961.0</ele><time>2026-04-12T16:47:28.877Z</time></trkpt><trkpt lat="46.1686643" lon="10.2840537"><ele>960.9999999999999</ele><time>2026-04-12T16:47:30.877Z</time></trkpt><trkpt lat="46.1686871" lon="10.2839592"><ele>961.0</ele><time>2026-04-12T16:47:32.877Z</time></trkpt><trkpt lat="46.1686762" lon="10.2838416"><ele>961.0</ele><time>2026-04-12T16:47:35.876Z</time></trkpt><trkpt lat="46.1687215" lon="10.2837431"><ele>961.0</ele><time>2026-04-12T16:47:39.877Z</time></trkpt><trkpt lat="46.1687946" lon="10.2837449"><ele>960.9999999999999</ele><time>2026-04-12T16:47:41.876Z</time></trkpt><trkpt lat="46.1688882" lon="10.2837221"><ele>961.0</ele><time>2026-04-12T16:47:45.877Z</time></trkpt><trkpt lat="46.1689451" lon="10.2836534"><ele>961.4999999999999</ele><time>2026-04-12T16:47:50.877Z</time></trkpt><trkpt lat="46.1689632" lon="10.2835513"><ele>962.0</ele><time>2026-04-12T16:47:53.878Z</time></trkpt><trkpt lat="46.1689473" lon="10.2834384"><ele>962.5</ele><time>2026-04-12T16:47:57.877Z</time></trkpt><trkpt lat="46.1689393" lon="10.2833342"><ele>963.0</ele><time>2026-04-12T16:48:12.876Z</time></trkpt><trkpt lat="46.1689483" lon="10.2832171"><ele>963.4999999999999</ele><time>2026-04-12T16:48:56.879Z</time></trkpt><trkpt lat="46.1689537" lon="10.2831114"><ele>964.0</ele><time>2026-04-12T16:48:59.877Z</time></trkpt><trkpt lat="46.1689358" lon="10.2830074"><ele>963.1428571428572</ele><time>2026-04-12T16:49:04.879Z</time></trkpt><trkpt lat="46.1689441" lon="10.2829083"><ele>962.2857142857144</ele><time>2026-04-12T16:49:06.878Z</time></trkpt><trkpt lat="46.1689592" lon="10.2828145"><ele>961.4285714285714</ele><time>2026-04-12T16:49:10.878Z</time></trkpt><trkpt lat="46.1689787" lon="10.2827227"><ele>960.5714285714287</ele><time>2026-04-12T16:49:14.877Z</time></trkpt><trkpt lat="46.1689734" lon="10.2826135"><ele>959.7142857142858</ele><time>2026-04-12T16:49:18.878Z</time></trkpt><trkpt lat="46.1689616" lon="10.2825155"><ele>958.8571428571429</ele><time>2026-04-12T16:49:22.878Z</time></trkpt><trkpt lat="46.1689739" lon="10.2824073"><ele>958.0</ele><time>2026-04-12T16:49:24.878Z</time></trkpt><trkpt lat="46.1689911" lon="10.2823127"><ele>956.5714285714286</ele><time>2026-04-12T16:49:27.878Z</time></trkpt><trkpt lat="46.1690068" lon="10.2822005"><ele>955.1428571428571</ele><time>2026-04-12T16:49:30.879Z</time></trkpt><trkpt lat="46.1690322" lon="10.2821126"><ele>953.7142857142857</ele><time>2026-04-12T16:49:32.879Z</time></trkpt><trkpt lat="46.1690406" lon="10.2820199"><ele>952.2857142857142</ele><time>2026-04-12T16:49:34.878Z</time></trkpt><trkpt lat="46.1689758" lon="10.2819656"><ele>950.8571428571429</ele><time>2026-04-12T16:49:36.878Z</time></trkpt><trkpt lat="46.1688844" lon="10.281951"><ele>949.4285714285713</ele><time>2026-04-12T16:49:39.879Z</time></trkpt><trkpt lat="46.1688583" lon="10.281864"><ele>947.9999999999999</ele><time>2026-04-12T16:49:43.877Z</time></trkpt><trkpt lat="46.1688306" lon="10.2817692"><ele>947.9999999999999</ele><time>2026-04-12T16:49:47.877Z</time></trkpt><trkpt lat="46.1688087" lon="10.2816821"><ele>948.0</ele><time>2026-04-12T16:49:50.878Z</time></trkpt><trkpt lat="46.1687782" lon="10.281586"><ele>947.9999999999999</ele><time>2026-04-12T16:49:54.878Z</time></trkpt><trkpt lat="46.1687432" lon="10.2814959"><ele>947.9999999999999</ele><time>2026-04-12T16:49:58.878Z</time></trkpt><trkpt lat="46.168725" lon="10.2813973"><ele>948.0</ele><time>2026-04-12T16:50:02.878Z</time></trkpt><trkpt lat="46.1686964" lon="10.2813111"><ele>947.9999999999999</ele><time>2026-04-12T16:50:06.878Z</time></trkpt><trkpt lat="46.1686577" lon="10.2812104"><ele>947.9999999999999</ele><time>2026-04-12T16:50:11.878Z</time></trkpt><trkpt lat="46.168616" lon="10.2811354"><ele>945.5714285714284</ele><time>2026-04-12T16:50:15.877Z</time></trkpt><trkpt lat="46.1685834" lon="10.2810446"><ele>943.1428571428571</ele><time>2026-04-12T16:50:20.878Z</time></trkpt><trkpt lat="46.16856" lon="10.2809325"><ele>940.7142857142857</ele><time>2026-04-12T16:50:25.878Z</time></trkpt><trkpt lat="46.1685217" lon="10.2808511"><ele>938.2857142857142</ele><time>2026-04-12T16:50:29.879Z</time></trkpt><trkpt lat="46.1684827" lon="10.2807586"><ele>935.8571428571429</ele><time>2026-04-12T16:50:34.878Z</time></trkpt><trkpt lat="46.1684397" lon="10.2806752"><ele>933.4285714285714</ele><time>2026-04-12T16:50:39.877Z</time></trkpt><trkpt lat="46.1684041" lon="10.280571"><ele>931.0</ele><time>2026-04-12T16:50:44.878Z</time></trkpt><trkpt lat="46.1683872" lon="10.2804371"><ele>928.8333333333333</ele><time>2026-04-12T16:50:48.878Z</time></trkpt><trkpt lat="46.1683838" lon="10.2803168"><ele>926.6666666666666</ele><time>2026-04-12T16:50:50.877Z</time></trkpt><trkpt lat="46.1683733" lon="10.2802095"><ele>924.5</ele><time>2026-04-12T16:50:52.879Z</time></trkpt><trkpt lat="46.1683748" lon="10.2800984"><ele>922.3333333333333</ele><time>2026-04-12T16:50:54.879Z</time></trkpt><trkpt lat="46.1684341" lon="10.2800252"><ele>920.1666666666666</ele><time>2026-04-12T16:50:55.879Z</time></trkpt><trkpt lat="46.1684787" lon="10.2799193"><ele>918.0</ele><time>2026-04-12T16:50:57.878Z</time></trkpt><trkpt lat="46.1685032" lon="10.2797745"><ele>916.3333333333334</ele><time>2026-04-12T16:50:59.877Z</time></trkpt><trkpt lat="46.1684263" lon="10.2797345"><ele>914.6666666666667</ele><time>2026-04-12T16:51:00.877Z</time></trkpt><trkpt lat="46.1683942" lon="10.279636"><ele>913.0</ele><time>2026-04-12T16:51:02.878Z</time></trkpt><trkpt lat="46.1683393" lon="10.2795649"><ele>911.3333333333334</ele><time>2026-04-12T16:51:07.878Z</time></trkpt><trkpt lat="46.1682843" lon="10.2794856"><ele>909.6666666666667</ele><time>2026-04-12T16:51:11.878Z</time></trkpt><trkpt lat="46.1682284" lon="10.2794126"><ele>908.0</ele><time>2026-04-12T16:51:18.877Z</time></trkpt><trkpt lat="46.1681746" lon="10.2793496"><ele>913.0</ele><time>2026-04-12T16:51:23.877Z</time></trkpt><trkpt lat="46.1681651" lon="10.2792493"><ele>918.0000000000001</ele><time>2026-04-12T16:51:28.879Z</time></trkpt><trkpt lat="46.1681671" lon="10.2791357"><ele>923.0</ele><time>2026-04-12T16:51:33.879Z</time></trkpt><trkpt lat="46.1681436" lon="10.2790498"><ele>928.0</ele><time>2026-04-12T16:51:37.877Z</time></trkpt><trkpt lat="46.1681186" lon="10.2789618"><ele>933.0000000000001</ele><time>2026-04-12T16:51:41.898Z</time></trkpt><trkpt lat="46.1680977" lon="10.2788602"><ele>938.0</ele><time>2026-04-12T16:51:43.878Z</time></trkpt><trkpt lat="46.168085" lon="10.2787688"><ele>943.0</ele><time>2026-04-12T16:51:45.878Z</time></trkpt><trkpt lat="46.1680581" lon="10.2786862"><ele>943.0</ele><time>2026-04-12T16:51:47.878Z</time></trkpt><trkpt lat="46.1680125" lon="10.2786102"><ele>943.0000000000001</ele><time>2026-04-12T16:51:50.879Z</time></trkpt><trkpt lat="46.1679749" lon="10.2785318"><ele>943.0</ele><time>2026-04-12T16:51:53.878Z</time></trkpt><trkpt lat="46.167922" lon="10.2784293"><ele>943.0</ele><time>2026-04-12T16:51:57.878Z</time></trkpt><trkpt lat="46.1678706" lon="10.2783511"><ele>943.0000000000001</ele><time>2026-04-12T16:51:59.879Z</time></trkpt><trkpt lat="46.1678202" lon="10.2782724"><ele>943.0</ele><time>2026-04-12T16:52:01.877Z</time></trkpt><trkpt lat="46.1677924" lon="10.2781746"><ele>943.0</ele><time>2026-04-12T16:52:03.833Z</time></trkpt><trkpt lat="46.1678123" lon="10.2780768"><ele>941.4999999999999</ele><time>2026-04-12T16:52:05.878Z</time></trkpt><trkpt lat="46.1678482" lon="10.2779754"><ele>940.0</ele><time>2026-04-12T16:52:07.879Z</time></trkpt><trkpt lat="46.1678606" lon="10.2778316"><ele>938.5</ele><time>2026-04-12T16:52:09.878Z</time></trkpt><trkpt lat="46.1678545" lon="10.277694"><ele>937.0</ele><time>2026-04-12T16:52:11.878Z</time></trkpt><trkpt lat="46.1678464" lon="10.2775578"><ele>935.4999999999999</ele><time>2026-04-12T16:52:14.878Z</time></trkpt><trkpt lat="46.1678304" lon="10.2774487"><ele>934.0</ele><time>2026-04-12T16:52:16.879Z</time></trkpt><trkpt lat="46.1678359" lon="10.2773223"><ele>932.2</ele><time>2026-04-12T16:52:18.879Z</time></trkpt><trkpt lat="46.1678228" lon="10.2771848"><ele>930.4000000000001</ele><time>2026-04-12T16:52:20.878Z</time></trkpt><trkpt lat="46.1678127" lon="10.2770438"><ele>928.6</ele><time>2026-04-12T16:52:22.878Z</time></trkpt><trkpt lat="46.1678015" lon="10.276897"><ele>926.8</ele><time>2026-04-12T16:52:24.878Z</time></trkpt><trkpt lat="46.1677895" lon="10.276729"><ele>925.0</ele><time>2026-04-12T16:52:26.878Z</time></trkpt><trkpt lat="46.1677706" lon="10.2765775"><ele>925.0</ele><time>2026-04-12T16:52:28.877Z</time></trkpt><trkpt lat="46.1677602" lon="10.2764686"><ele>925.0</ele><time>2026-04-12T16:52:30.878Z</time></trkpt><trkpt lat="46.1677454" lon="10.2763705"><ele>925.0</ele><time>2026-04-12T16:52:32.879Z</time></trkpt><trkpt lat="46.1677325" lon="10.2762634"><ele>925.0</ele><time>2026-04-12T16:52:34.878Z</time></trkpt><trkpt lat="46.1677042" lon="10.2761619"><ele>925.0</ele><time>2026-04-12T16:52:36.878Z</time></trkpt><trkpt lat="46.1676908" lon="10.2760669"><ele>925.0</ele><time>2026-04-12T16:52:38.878Z</time></trkpt><trkpt lat="46.1676855" lon="10.2759729"><ele>925.0</ele><time>2026-04-12T16:52:40.878Z</time></trkpt><trkpt lat="46.1676976" lon="10.275883"><ele>922.4</ele><time>2026-04-12T16:52:42.878Z</time></trkpt><trkpt lat="46.1677213" lon="10.2757807"><ele>919.8</ele><time>2026-04-12T16:52:44.877Z</time></trkpt><trkpt lat="46.1677371" lon="10.2756427"><ele>917.2</ele><time>2026-04-12T16:52:46.878Z</time></trkpt><trkpt lat="46.1677255" lon="10.2754908"><ele>914.6</ele><time>2026-04-12T16:52:48.878Z</time></trkpt><trkpt lat="46.1677099" lon="10.2753506"><ele>912.0</ele><time>2026-04-12T16:52:50.878Z</time></trkpt><trkpt lat="46.1677133" lon="10.2752257"><ele>910.8333333333334</ele><time>2026-04-12T16:52:52.879Z</time></trkpt><trkpt lat="46.1677194" lon="10.2750939"><ele>909.6666666666667</ele><time>2026-04-12T16:52:54.877Z</time></trkpt><trkpt lat="46.1677139" lon="10.2749631"><ele>908.5</ele><time>2026-04-12T16:52:56.878Z</time></trkpt><trkpt lat="46.1676832" lon="10.2748671"><ele>907.3333333333334</ele><time>2026-04-12T16:52:58.879Z</time></trkpt><trkpt lat="46.1676537" lon="10.2747605"><ele>906.1666666666667</ele><time>2026-04-12T16:53:01.88Z</time></trkpt><trkpt lat="46.1676242" lon="10.2746793"><ele>905.0</ele><time>2026-04-12T16:53:03.879Z</time></trkpt><trkpt lat="46.1675728" lon="10.2745652"><ele>904.3333333333334</ele><time>2026-04-12T16:53:05.878Z</time></trkpt><trkpt lat="46.1675161" lon="10.2744729"><ele>903.6666666666667</ele><time>2026-04-12T16:53:07.879Z</time></trkpt><trkpt lat="46.1675409" lon="10.2743394"><ele>903.0</ele><time>2026-04-12T16:53:10.879Z</time></trkpt><trkpt lat="46.1675963" lon="10.2742855"><ele>902.3333333333333</ele><time>2026-04-12T16:53:12.878Z</time></trkpt><trkpt lat="46.16768" lon="10.2742278"><ele>901.6666666666666</ele><time>2026-04-12T16:53:15.879Z</time></trkpt><trkpt lat="46.1677442" lon="10.2741772"><ele>901.0</ele><time>2026-04-12T16:53:18.878Z</time></trkpt><trkpt lat="46.1678146" lon="10.2741756"><ele>901.0</ele><time>2026-04-12T16:53:21.879Z</time></trkpt><trkpt lat="46.1678956" lon="10.2742362"><ele>900.9999999999999</ele><time>2026-04-12T16:53:24.879Z</time></trkpt><trkpt lat="46.1680037" lon="10.2742714"><ele>900.9999999999999</ele><time>2026-04-12T16:53:26.878Z</time></trkpt><trkpt lat="46.168108" lon="10.2743294"><ele>901.0</ele><time>2026-04-12T16:53:28.879Z</time></trkpt><trkpt lat="46.168181" lon="10.274404"><ele>901.0</ele><time>2026-04-12T16:53:30.879Z</time></trkpt><trkpt lat="46.1682276" lon="10.2744914"><ele>898.6666666666666</ele><time>2026-04-12T16:53:32.879Z</time></trkpt><trkpt lat="46.1682788" lon="10.2745663"><ele>896.3333333333333</ele><time>2026-04-12T16:53:35.879Z</time></trkpt><trkpt lat="46.1683487" lon="10.2746773"><ele>894.0</ele><time>2026-04-12T16:53:38.88Z</time></trkpt><trkpt lat="46.1684148" lon="10.2747716"><ele>891.6666666666667</ele><time>2026-04-12T16:53:40.879Z</time></trkpt><trkpt lat="46.1684754" lon="10.2748581"><ele>889.3333333333334</ele><time>2026-04-12T16:53:42.879Z</time></trkpt><trkpt lat="46.1685532" lon="10.2748918"><ele>887.0</ele><time>2026-04-12T16:53:44.879Z</time></trkpt><trkpt lat="46.1686548" lon="10.2748503"><ele>887.0</ele><time>2026-04-12T16:53:46.879Z</time></trkpt><trkpt lat="46.1687239" lon="10.274809"><ele>887.0</ele><time>2026-04-12T16:53:48.88Z</time></trkpt><trkpt lat="46.1687443" lon="10.2747125"><ele>883.0</ele><time>2026-04-12T16:53:50.879Z</time></trkpt><trkpt lat="46.1687212" lon="10.2746161"><ele>883.0</ele><time>2026-04-12T16:53:52.879Z</time></trkpt><trkpt lat="46.16871" lon="10.2745168"><ele>883.0</ele><time>2026-04-12T16:53:54.878Z</time></trkpt><trkpt lat="46.1687034" lon="10.27442"><ele>883.0</ele><time>2026-04-12T16:53:56.879Z</time></trkpt><trkpt lat="46.1686592" lon="10.2743475"><ele>883.0</ele><time>2026-04-12T16:53:59.878Z</time></trkpt></trkseg></trk></gpx>